<?xml version='1.0' encoding='UTF-8'?><gpx version="1.1" creator="JPX - https://github.com/jenetics/jpx" xmlns="http://www.topografix.com/GPX/1/1"><trk><trkseg><trkpt lat="46.00812003023808" lon="8.294013469307806"><ele>222.99999999999997</ele><time>2026-04-04T15:32:46.001Z</time></trkpt><trkpt lat="46.00812966115839" lon="8.294114965873339"><ele>223.0</ele><time>2026-04-04T15:33:16.999Z</time></trkpt><trkpt lat="46.00804645204501" lon="8.294129962736273"><ele>223.0</ele><time>2026-04-04T15:33:19.999Z</time></trkpt><trkpt lat="46.007997234470906" lon="8.294026540124419"><ele>223.0</ele><time>2026-04-04T15:33:22.999Z</time></trkpt><trkpt lat="46.00795732213435" lon="8.293950715603323"><ele>222.99999999999997</ele><time>2026-04-04T15:33:24.999Z</time></trkpt><trkpt lat="46.007934540926506" lon="8.293825912453237"><ele>223.0</ele><time>2026-04-04T15:33:27.999Z</time></trkpt><trkpt lat="46.00790300995425" lon="8.293741893100325"><ele>222.99999999999997</ele><time>2026-04-04T15:33:29.999Z</time></trkpt><trkpt lat="46.00787099435264" lon="8.293623541957105"><ele>223.0</ele><time>2026-04-04T15:33:32.999Z</time></trkpt><trkpt lat="46.007819272505756" lon="8.293549141721368"><ele>223.0</ele><time>2026-04-04T15:33:34.999Z</time></trkpt><trkpt lat="46.007754773378416" lon="8.293464886728048"><ele>223.0</ele><time>2026-04-04T15:33:37.999Z</time></trkpt><trkpt lat="46.00767903694533" lon="8.293378673211553"><ele>222.99999999999997</ele><time>2026-04-04T15:33:40.999Z</time></trkpt><trkpt lat="46.00763783223842" lon="8.293309078082725"><ele>223.0</ele><time>2026-04-04T15:33:43.999Z</time></trkpt><trkpt lat="46.00757153984255" lon="8.293273207861219"><ele>223.0</ele><time>2026-04-04T15:34:02.998Z</time></trkpt><trkpt lat="46.00750543974906" lon="8.2933429815613"><ele>223.0</ele><time>2026-04-04T15:34:04.998Z</time></trkpt><trkpt lat="46.00743559953458" lon="8.293492035080485"><ele>223.0</ele><time>2026-04-04T15:34:06.998Z</time></trkpt><trkpt lat="46.0073911454188" lon="8.293587354578149"><ele>223.0</ele><time>2026-04-04T15:34:07.998Z</time></trkpt><trkpt lat="46.00726319112929" lon="8.293636578246009"><ele>223.0</ele><time>2026-04-04T15:34:08.998Z</time></trkpt><trkpt lat="46.00719569281267" lon="8.293765051643996"><ele>222.60000000000002</ele><time>2026-04-04T15:34:09.998Z</time></trkpt><trkpt lat="46.00712918770619" lon="8.29389163460419"><ele>222.20000000000002</ele><time>2026-04-04T15:34:10.998Z</time></trkpt><trkpt lat="46.00706437344203" lon="8.29401369625283"><ele>221.8</ele><time>2026-04-04T15:34:11.998Z</time></trkpt><trkpt lat="46.007001467855694" lon="8.294134436169317"><ele>221.4</ele><time>2026-04-04T15:34:12.998Z</time></trkpt><trkpt lat="46.00692870344044" lon="8.29427253172288"><ele>221.0</ele><time>2026-04-04T15:34:13.998Z</time></trkpt><trkpt lat="46.00684918654103" lon="8.294422726948477"><ele>221.0</ele><time>2026-04-04T15:34:14.998Z</time></trkpt><trkpt lat="46.006763821277694" lon="8.29458396882931"><ele>221.0</ele><time>2026-04-04T15:34:15.998Z</time></trkpt><trkpt lat="46.006686454073595" lon="8.294729878874994"><ele>221.0</ele><time>2026-04-04T15:34:16.998Z</time></trkpt><trkpt lat="46.00662306745406" lon="8.29484920409264"><ele>221.0</ele><time>2026-04-04T15:34:17.998Z</time></trkpt><trkpt lat="46.00656679322729" lon="8.294955140242664"><ele>221.00000000000003</ele><time>2026-04-04T15:34:18.998Z</time></trkpt><trkpt lat="46.00651674530813" lon="8.295049355381558"><ele>221.0</ele><time>2026-04-04T15:34:19.998Z</time></trkpt><trkpt lat="46.006461719917056" lon="8.295152940605574"><ele>221.0</ele><time>2026-04-04T15:34:20.998Z</time></trkpt><trkpt lat="46.00640905680613" lon="8.29525207884475"><ele>221.0</ele><time>2026-04-04T15:34:21.998Z</time></trkpt><trkpt lat="46.00635404649539" lon="8.295355619500928"><ele>221.00000000000003</ele><time>2026-04-04T15:34:22.998Z</time></trkpt><trkpt lat="46.006298061632044" lon="8.295460806074418"><ele>221.0</ele><time>2026-04-04T15:34:23.998Z</time></trkpt><trkpt lat="46.0062385379913" lon="8.295572641445995"><ele>221.25</ele><time>2026-04-04T15:34:24.998Z</time></trkpt><trkpt lat="46.006173328865835" lon="8.295695158933666"><ele>221.5</ele><time>2026-04-04T15:34:25.999Z</time></trkpt><trkpt lat="46.006102775054224" lon="8.295827718234213"><ele>221.75</ele><time>2026-04-04T15:34:26.999Z</time></trkpt><trkpt lat="46.00603320474293" lon="8.295958429694696"><ele>222.0</ele><time>2026-04-04T15:34:27.999Z</time></trkpt><trkpt lat="46.00595632056898" lon="8.296102882725362"><ele>222.0</ele><time>2026-04-04T15:34:28.999Z</time></trkpt><trkpt lat="46.00589192960586" lon="8.296262786693008"><ele>222.0</ele><time>2026-04-04T15:34:29.999Z</time></trkpt><trkpt lat="46.00580078602205" lon="8.296395107184214"><ele>222.0</ele><time>2026-04-04T15:34:30.999Z</time></trkpt><trkpt lat="46.00572448341277" lon="8.296538467546632"><ele>222.0</ele><time>2026-04-04T15:34:31.999Z</time></trkpt><trkpt lat="46.005650841438225" lon="8.296677834985346"><ele>221.5</ele><time>2026-04-04T15:34:32.999Z</time></trkpt><trkpt lat="46.00557361206969" lon="8.296824169549328"><ele>221.0</ele><time>2026-04-04T15:34:33.999Z</time></trkpt><trkpt lat="46.005501185413294" lon="8.296961403909698"><ele>220.5</ele><time>2026-04-04T15:34:34.999Z</time></trkpt><trkpt lat="46.00542810502101" lon="8.297099632363258"><ele>220.0</ele><time>2026-04-04T15:34:35.999Z</time></trkpt><trkpt lat="46.005355185590815" lon="8.297237462835845"><ele>219.75</ele><time>2026-04-04T15:34:36.999Z</time></trkpt><trkpt lat="46.00529318263369" lon="8.297387729448982"><ele>219.5</ele><time>2026-04-04T15:34:37.999Z</time></trkpt><trkpt lat="46.005216852433136" lon="8.297518141070354"><ele>219.25</ele><time>2026-04-04T15:34:38.999Z</time></trkpt><trkpt lat="46.005148969863576" lon="8.297659724556814"><ele>219.0</ele><time>2026-04-04T15:34:39.999Z</time></trkpt><trkpt lat="46.005073542401135" lon="8.297792586063757"><ele>219.0</ele><time>2026-04-04T15:34:40.999Z</time></trkpt><trkpt lat="46.00500049165941" lon="8.297928329969183"><ele>219.0</ele><time>2026-04-04T15:34:41.999Z</time></trkpt><trkpt lat="46.004928799125864" lon="8.29806612761285"><ele>219.0</ele><time>2026-04-04T15:34:42.999Z</time></trkpt><trkpt lat="46.00485796041703" lon="8.298200049034644"><ele>219.0</ele><time>2026-04-04T15:34:43.999Z</time></trkpt><trkpt lat="46.004786349643545" lon="8.298343204374191"><ele>219.25</ele><time>2026-04-04T15:34:44.999Z</time></trkpt><trkpt lat="46.00471255863283" lon="8.29847162759031"><ele>219.5</ele><time>2026-04-04T15:34:45.999Z</time></trkpt><trkpt lat="46.00463476199277" lon="8.298609801897562"><ele>219.75</ele><time>2026-04-04T15:34:46.999Z</time></trkpt><trkpt lat="46.00456103018307" lon="8.298747758206272"><ele>220.0</ele><time>2026-04-04T15:34:47.999Z</time></trkpt><trkpt lat="46.004489769045136" lon="8.298886370777259"><ele>220.25</ele><time>2026-04-04T15:34:48.999Z</time></trkpt><trkpt lat="46.00441454971379" lon="8.299024278187941"><ele>220.5</ele><time>2026-04-04T15:34:49.999Z</time></trkpt><trkpt lat="46.00433715737603" lon="8.299167374818857"><ele>220.75</ele><time>2026-04-04T15:34:50.999Z</time></trkpt><trkpt lat="46.00426897198399" lon="8.299318480104445"><ele>221.0</ele><time>2026-04-04T15:34:51.999Z</time></trkpt><trkpt lat="46.004214317511554" lon="8.299480383505752"><ele>221.0</ele><time>2026-04-04T15:34:52.999Z</time></trkpt><trkpt lat="46.00418470856355" lon="8.299659671088664"><ele>221.0</ele><time>2026-04-04T15:34:53.999Z</time></trkpt><trkpt lat="46.00417730993196" lon="8.299846917787413"><ele>221.0</ele><time>2026-04-04T15:34:54.999Z</time></trkpt><trkpt lat="46.00417757027782" lon="8.300034860145864"><ele>221.0</ele><time>2026-04-04T15:34:55.999Z</time></trkpt><trkpt lat="46.00417972069144" lon="8.300220519992498"><ele>220.5</ele><time>2026-04-04T15:34:56.999Z</time></trkpt><trkpt lat="46.00417655079123" lon="8.300422623818584"><ele>220.0</ele><time>2026-04-04T15:34:57.999Z</time></trkpt><trkpt lat="46.00417265996153" lon="8.300621235500863"><ele>219.5</ele><time>2026-04-04T15:34:58.999Z</time></trkpt><trkpt lat="46.00416765953925" lon="8.300833085378132"><ele>219.0</ele><time>2026-04-04T15:34:59.999Z</time></trkpt><trkpt lat="46.00415499388681" lon="8.301040068557342"><ele>218.5</ele><time>2026-04-04T15:35:00.999Z</time></trkpt><trkpt lat="46.004149578175756" lon="8.30122995094053"><ele>218.0</ele><time>2026-04-04T15:35:01.999Z</time></trkpt><trkpt lat="46.004140148307826" lon="8.301422375036433"><ele>217.5</ele><time>2026-04-04T15:35:02.999Z</time></trkpt><trkpt lat="46.004136821896104" lon="8.301622195742771"><ele>217.0</ele><time>2026-04-04T15:35:03.999Z</time></trkpt><trkpt lat="46.00413353824945" lon="8.301818520539262"><ele>217.0</ele><time>2026-04-04T15:35:04.999Z</time></trkpt><trkpt lat="46.00413046367469" lon="8.302020124609031"><ele>217.0</ele><time>2026-04-04T15:35:05.999Z</time></trkpt><trkpt lat="46.004127663136344" lon="8.302218503836343"><ele>217.0</ele><time>2026-04-04T15:35:06.999Z</time></trkpt><trkpt lat="46.00411807123814" lon="8.302412189404453"><ele>217.0</ele><time>2026-04-04T15:35:07.999Z</time></trkpt><trkpt lat="46.004110758395086" lon="8.302607260536245"><ele>217.25</ele><time>2026-04-04T15:35:08.999Z</time></trkpt><trkpt lat="46.004105436364505" lon="8.302802635718912"><ele>217.5</ele><time>2026-04-04T15:35:09.999Z</time></trkpt><trkpt lat="46.004103366661255" lon="8.30299904902224"><ele>217.75</ele><time>2026-04-04T15:35:10.999Z</time></trkpt><trkpt lat="46.00409780252882" lon="8.30319388015782"><ele>218.0</ele><time>2026-04-04T15:35:11.999Z</time></trkpt><trkpt lat="46.004092835215" lon="8.30338934137192"><ele>218.25</ele><time>2026-04-04T15:35:12.999Z</time></trkpt><trkpt lat="46.004085615124026" lon="8.303582456664946"><ele>218.5</ele><time>2026-04-04T15:35:13.999Z</time></trkpt><trkpt lat="46.00408152858519" lon="8.30377531742923"><ele>218.75</ele><time>2026-04-04T15:35:14.999Z</time></trkpt><trkpt lat="46.004069664573876" lon="8.303959822030922"><ele>219.0</ele><time>2026-04-04T15:35:15.999Z</time></trkpt><trkpt lat="46.00406491235528" lon="8.304156125493579"><ele>219.0</ele><time>2026-04-04T15:35:16.999Z</time></trkpt><trkpt lat="46.00406524836579" lon="8.304367896974044"><ele>219.0</ele><time>2026-04-04T15:35:17.999Z</time></trkpt><trkpt lat="46.004058967674695" lon="8.304556437316801"><ele>219.0</ele><time>2026-04-04T15:35:18.999Z</time></trkpt><trkpt lat="46.00405492361154" lon="8.304769717085016"><ele>219.0</ele><time>2026-04-04T15:35:19.999Z</time></trkpt><trkpt lat="46.0040497652711" lon="8.304974786947845"><ele>218.5</ele><time>2026-04-04T15:35:20.999Z</time></trkpt><trkpt lat="46.00404398444918" lon="8.305176994302448"><ele>218.0</ele><time>2026-04-04T15:35:21.999Z</time></trkpt><trkpt lat="46.00403795109237" lon="8.305374342314323"><ele>217.5</ele><time>2026-04-04T15:35:22.999Z</time></trkpt><trkpt lat="46.00403171288113" lon="8.305581098454345"><ele>217.0</ele><time>2026-04-04T15:35:23.999Z</time></trkpt><trkpt lat="46.0040243889487" lon="8.305784260805673"><ele>217.0</ele><time>2026-04-04T15:35:24.999Z</time></trkpt><trkpt lat="46.00401667667569" lon="8.305991125093678"><ele>217.0</ele><time>2026-04-04T15:35:25.999Z</time></trkpt><trkpt lat="46.00401868679265" lon="8.30619849118625"><ele>217.0</ele><time>2026-04-04T15:35:26.999Z</time></trkpt><trkpt lat="46.004014171336856" lon="8.306410457216835"><ele>217.0</ele><time>2026-04-04T15:35:27.999Z</time></trkpt><trkpt lat="46.004008656637524" lon="8.306619702083806"><ele>217.0</ele><time>2026-04-04T15:35:28.999Z</time></trkpt><trkpt lat="46.00400494689515" lon="8.30684209565674"><ele>217.0</ele><time>2026-04-04T15:35:29.999Z</time></trkpt><trkpt lat="46.00400219805692" lon="8.30705637501438"><ele>217.0</ele><time>2026-04-04T15:35:30.999Z</time></trkpt><trkpt lat="46.00399961182898" lon="8.307266182482127"><ele>217.0</ele><time>2026-04-04T15:35:31.999Z</time></trkpt><trkpt lat="46.00399289584186" lon="8.307473248597681"><ele>216.66666666666666</ele><time>2026-04-04T15:35:32.999Z</time></trkpt><trkpt lat="46.00398756059923" lon="8.307684953722282"><ele>216.33333333333331</ele><time>2026-04-04T15:35:33.999Z</time></trkpt><trkpt lat="46.00398104168102" lon="8.307901115347294"><ele>216.0</ele><time>2026-04-04T15:35:34.999Z</time></trkpt><trkpt lat="46.003974702322985" lon="8.308124251549936"><ele>215.66666666666669</ele><time>2026-04-04T15:35:35.999Z</time></trkpt><trkpt lat="46.00396988980089" lon="8.308348501134128"><ele>215.33333333333334</ele><time>2026-04-04T15:35:36.999Z</time></trkpt><trkpt lat="46.00397029946493" lon="8.308562333188421"><ele>215.0</ele><time>2026-04-04T15:35:37.999Z</time></trkpt><trkpt lat="46.003963351591935" lon="8.308793959144422"><ele>215.66666666666669</ele><time>2026-04-04T15:35:38.999Z</time></trkpt><trkpt lat="46.00395713761521" lon="8.309021607426752"><ele>216.33333333333331</ele><time>2026-04-04T15:35:39.999Z</time></trkpt><trkpt lat="46.00395158916839" lon="8.309245846054928"><ele>217.0</ele><time>2026-04-04T15:35:40.999Z</time></trkpt><trkpt lat="46.003942204492375" lon="8.309476124608395"><ele>217.0</ele><time>2026-04-04T15:35:41.999Z</time></trkpt><trkpt lat="46.00393597725731" lon="8.309706734844378"><ele>217.0</ele><time>2026-04-04T15:35:42.999Z</time></trkpt><trkpt lat="46.00392921952183" lon="8.30994034510549"><ele>217.0</ele><time>2026-04-04T15:35:43.999Z</time></trkpt><trkpt lat="46.00392129818462" lon="8.310176529160055"><ele>217.0</ele><time>2026-04-04T15:35:44.999Z</time></trkpt><trkpt lat="46.00391133408784" lon="8.310412638220274"><ele>217.0</ele><time>2026-04-04T15:35:45.999Z</time></trkpt><trkpt lat="46.003910479492596" lon="8.310662551284047"><ele>217.0</ele><time>2026-04-04T15:35:46.999Z</time></trkpt><trkpt lat="46.003904054541664" lon="8.310915282921025"><ele>217.0</ele><time>2026-04-04T15:35:47.999Z</time></trkpt><trkpt lat="46.00390271084493" lon="8.311164086697923"><ele>217.0</ele><time>2026-04-04T15:35:48.999Z</time></trkpt><trkpt lat="46.00389528756456" lon="8.311414416945116"><ele>217.0</ele><time>2026-04-04T15:35:49.999Z</time></trkpt><trkpt lat="46.003892066941134" lon="8.311679535117703"><ele>216.66666666666666</ele><time>2026-04-04T15:35:50.999Z</time></trkpt><trkpt lat="46.003882034316156" lon="8.311911819918382"><ele>216.33333333333331</ele><time>2026-04-04T15:35:51.999Z</time></trkpt><trkpt lat="46.003874442263765" lon="8.312124275787474"><ele>216.0</ele><time>2026-04-04T15:35:52.999Z</time></trkpt><trkpt lat="46.00387173786349" lon="8.312327593435253"><ele>216.0</ele><time>2026-04-04T15:35:53.999Z</time></trkpt><trkpt lat="46.00386492300945" lon="8.31252243841943"><ele>216.0</ele><time>2026-04-04T15:35:54.999Z</time></trkpt><trkpt lat="46.00385295770361" lon="8.312718068199072"><ele>216.0</ele><time>2026-04-04T15:35:55.999Z</time></trkpt><trkpt lat="46.00384980664156" lon="8.312916471197282"><ele>216.0</ele><time>2026-04-04T15:35:56.999Z</time></trkpt><trkpt lat="46.00384806924171" lon="8.313122443223996"><ele>216.0</ele><time>2026-04-04T15:35:57.999Z</time></trkpt><trkpt lat="46.00384211451299" lon="8.313331565426095"><ele>216.0</ele><time>2026-04-04T15:35:58.999Z</time></trkpt><trkpt lat="46.003833434750504" lon="8.313541202825807"><ele>216.0</ele><time>2026-04-04T15:35:59.999Z</time></trkpt><trkpt lat="46.00383273060052" lon="8.313758519248093"><ele>216.0</ele><time>2026-04-04T15:36:00.999Z</time></trkpt><trkpt lat="46.0038261520692" lon="8.313972188693807"><ele>216.33333333333331</ele><time>2026-04-04T15:36:01.999Z</time></trkpt><trkpt lat="46.003819226519624" lon="8.31419076825329"><ele>216.66666666666666</ele><time>2026-04-04T15:36:02.999Z</time></trkpt><trkpt lat="46.003813668356216" lon="8.314409937918173"><ele>217.0</ele><time>2026-04-04T15:36:03.999Z</time></trkpt><trkpt lat="46.00380817250043" lon="8.31463209281245"><ele>216.66666666666666</ele><time>2026-04-04T15:36:04.999Z</time></trkpt><trkpt lat="46.0038043102626" lon="8.31485589216516"><ele>216.33333333333331</ele><time>2026-04-04T15:36:05.999Z</time></trkpt><trkpt lat="46.003800149527855" lon="8.315079203514086"><ele>216.0</ele><time>2026-04-04T15:36:06.999Z</time></trkpt><trkpt lat="46.00379594819975" lon="8.315299880469114"><ele>216.0</ele><time>2026-04-04T15:36:07.999Z</time></trkpt><trkpt lat="46.003791949608505" lon="8.315515928158918"><ele>216.0</ele><time>2026-04-04T15:36:08.999Z</time></trkpt><trkpt lat="46.00378341228694" lon="8.315737261677008"><ele>216.0</ele><time>2026-04-04T15:36:09.999Z</time></trkpt><trkpt lat="46.00377210323101" lon="8.315960624646094"><ele>216.0</ele><time>2026-04-04T15:36:10.999Z</time></trkpt><trkpt lat="46.00376724224105" lon="8.316180561230933"><ele>216.0</ele><time>2026-04-04T15:36:11.999Z</time></trkpt><trkpt lat="46.00376133676304" lon="8.316398780863159"><ele>216.0</ele><time>2026-04-04T15:36:12.999Z</time></trkpt><trkpt lat="46.003754715760614" lon="8.31661776746991"><ele>216.0</ele><time>2026-04-04T15:36:13.999Z</time></trkpt><trkpt lat="46.00374790403984" lon="8.316837855320138"><ele>216.0</ele><time>2026-04-04T15:36:14.999Z</time></trkpt><trkpt lat="46.00374137884079" lon="8.317059081570095"><ele>216.0</ele><time>2026-04-04T15:36:15.999Z</time></trkpt><trkpt lat="46.003734465381875" lon="8.317281527636936"><ele>216.0</ele><time>2026-04-04T15:36:16.999Z</time></trkpt><trkpt lat="46.00372732132337" lon="8.317509645120658"><ele>216.0</ele><time>2026-04-04T15:36:17.999Z</time></trkpt><trkpt lat="46.00372173179402" lon="8.317735129744097"><ele>216.0</ele><time>2026-04-04T15:36:18.999Z</time></trkpt><trkpt lat="46.00371662640346" lon="8.317959550768018"><ele>215.66666666666669</ele><time>2026-04-04T15:36:19.999Z</time></trkpt><trkpt lat="46.00371254936388" lon="8.31818137947206"><ele>215.33333333333334</ele><time>2026-04-04T15:36:20.998Z</time></trkpt><trkpt lat="46.00370589893346" lon="8.318405981436602"><ele>215.0</ele><time>2026-04-04T15:36:21.998Z</time></trkpt><trkpt lat="46.00369893023458" lon="8.318632866968878"><ele>215.0</ele><time>2026-04-04T15:36:22.998Z</time></trkpt><trkpt lat="46.00369359540235" lon="8.318845874318534"><ele>215.0</ele><time>2026-04-04T15:36:23.998Z</time></trkpt><trkpt lat="46.003691255382364" lon="8.31903875942891"><ele>215.0</ele><time>2026-04-04T15:36:24.998Z</time></trkpt><trkpt lat="46.00368823642838" lon="8.319215610138945"><ele>215.0</ele><time>2026-04-04T15:36:25.998Z</time></trkpt><trkpt lat="46.003684571680765" lon="8.319366496053357"><ele>215.2</ele><time>2026-04-04T15:36:26.998Z</time></trkpt><trkpt lat="46.00367706556795" lon="8.319516956633297"><ele>215.4</ele><time>2026-04-04T15:36:27.998Z</time></trkpt><trkpt lat="46.003672421508064" lon="8.319660683695151"><ele>215.60000000000002</ele><time>2026-04-04T15:36:28.999Z</time></trkpt><trkpt lat="46.003671119890164" lon="8.319814572326885"><ele>215.8</ele><time>2026-04-04T15:36:29.999Z</time></trkpt><trkpt lat="46.00366729697648" lon="8.31996768092196"><ele>216.0</ele><time>2026-04-04T15:36:30.999Z</time></trkpt><trkpt lat="46.0036647132131" lon="8.320125408547748"><ele>216.0</ele><time>2026-04-04T15:36:31.999Z</time></trkpt><trkpt lat="46.00365966053256" lon="8.320289042933606"><ele>216.0</ele><time>2026-04-04T15:36:32.999Z</time></trkpt><trkpt lat="46.003657466090075" lon="8.320456842052819"><ele>216.0</ele><time>2026-04-04T15:36:33.999Z</time></trkpt><trkpt lat="46.00365236507968" lon="8.320625026517472"><ele>216.0</ele><time>2026-04-04T15:36:34.999Z</time></trkpt><trkpt lat="46.003647303856546" lon="8.320802220334166"><ele>216.0</ele><time>2026-04-04T15:36:35.999Z</time></trkpt><trkpt lat="46.003641908635515" lon="8.32098009045243"><ele>216.0</ele><time>2026-04-04T15:36:36.999Z</time></trkpt><trkpt lat="46.0036365270932" lon="8.321161795551424"><ele>216.0</ele><time>2026-04-04T15:36:37.999Z</time></trkpt><trkpt lat="46.003629333263085" lon="8.32134755014222"><ele>216.0</ele><time>2026-04-04T15:36:38.999Z</time></trkpt><trkpt lat="46.00362470674902" lon="8.321535322690565"><ele>216.25</ele><time>2026-04-04T15:36:39.999Z</time></trkpt><trkpt lat="46.00362023991056" lon="8.321725557904786"><ele>216.5</ele><time>2026-04-04T15:36:40.999Z</time></trkpt><trkpt lat="46.00361500048789" lon="8.32192437879809"><ele>216.75</ele><time>2026-04-04T15:36:41.999Z</time></trkpt><trkpt lat="46.00360779706702" lon="8.32212293415955"><ele>217.0</ele><time>2026-04-04T15:36:42.999Z</time></trkpt><trkpt lat="46.003603556020316" lon="8.322325297960669"><ele>217.5</ele><time>2026-04-04T15:36:43.999Z</time></trkpt><trkpt lat="46.00359799394734" lon="8.322534076992746"><ele>218.0</ele><time>2026-04-04T15:36:44.999Z</time></trkpt><trkpt lat="46.00359311486195" lon="8.322742843079272"><ele>218.5</ele><time>2026-04-04T15:36:45.999Z</time></trkpt><trkpt lat="46.0035923885293" lon="8.322954442836654"><ele>219.0</ele><time>2026-04-04T15:36:46.999Z</time></trkpt><trkpt lat="46.00358468535193" lon="8.323168581050515"><ele>219.33333333333331</ele><time>2026-04-04T15:36:47.999Z</time></trkpt><trkpt lat="46.00358207344575" lon="8.323389602218816"><ele>219.66666666666666</ele><time>2026-04-04T15:36:48.999Z</time></trkpt><trkpt lat="46.003573597743824" lon="8.323608914506641"><ele>220.0</ele><time>2026-04-04T15:36:49.999Z</time></trkpt><trkpt lat="46.00356861069776" lon="8.323826790739407"><ele>220.33333333333331</ele><time>2026-04-04T15:36:50.999Z</time></trkpt><trkpt lat="46.00356176874547" lon="8.324053386784072"><ele>220.66666666666669</ele><time>2026-04-04T15:36:51.999Z</time></trkpt><trkpt lat="46.0035558883821" lon="8.324277173748259"><ele>221.0</ele><time>2026-04-04T15:36:52.999Z</time></trkpt><trkpt lat="46.003551229278564" lon="8.324504946404788"><ele>221.0</ele><time>2026-04-04T15:36:53.999Z</time></trkpt><trkpt lat="46.00354691911272" lon="8.324727793906568"><ele>221.0</ele><time>2026-04-04T15:36:54.999Z</time></trkpt><trkpt lat="46.00354044948408" lon="8.324944954214114"><ele>221.0</ele><time>2026-04-04T15:36:56Z</time></trkpt><trkpt lat="46.003530850436015" lon="8.325161390774271"><ele>221.0</ele><time>2026-04-04T15:36:57Z</time></trkpt><trkpt lat="46.00352316199404" lon="8.325377869001704"><ele>221.0</ele><time>2026-04-04T15:36:58Z</time></trkpt><trkpt lat="46.003522573470924" lon="8.325593267463109"><ele>221.0</ele><time>2026-04-04T15:36:59Z</time></trkpt><trkpt lat="46.00351748983966" lon="8.325820990607472"><ele>221.0</ele><time>2026-04-04T15:37:00Z</time></trkpt><trkpt lat="46.00350884892035" lon="8.326029684929726"><ele>221.0</ele><time>2026-04-04T15:37:01Z</time></trkpt><trkpt lat="46.00350955523078" lon="8.326248158850934"><ele>221.0</ele><time>2026-04-04T15:37:02Z</time></trkpt><trkpt lat="46.003501455728525" lon="8.326459201610774"><ele>221.0</ele><time>2026-04-04T15:37:03Z</time></trkpt><trkpt lat="46.003498171940194" lon="8.326656231150631"><ele>221.0</ele><time>2026-04-04T15:37:04Z</time></trkpt><trkpt lat="46.0034924696792" lon="8.32685590008438"><ele>221.0</ele><time>2026-04-04T15:37:05Z</time></trkpt><trkpt lat="46.003488091095726" lon="8.327052465897076"><ele>221.0</ele><time>2026-04-04T15:37:06Z</time></trkpt><trkpt lat="46.003482841528424" lon="8.327248172985739"><ele>221.0</ele><time>2026-04-04T15:37:07Z</time></trkpt><trkpt lat="46.0034774195317" lon="8.327424628971961"><ele>221.25</ele><time>2026-04-04T15:37:08Z</time></trkpt><trkpt lat="46.003452539505126" lon="8.327597382268072"><ele>221.5</ele><time>2026-04-04T15:37:09Z</time></trkpt><trkpt lat="46.003429338305814" lon="8.327775670651231"><ele>221.75</ele><time>2026-04-04T15:37:10Z</time></trkpt><trkpt lat="46.00339093604139" lon="8.327933341043503"><ele>222.0</ele><time>2026-04-04T15:37:11Z</time></trkpt><trkpt lat="46.0033618034345" lon="8.328111885417274"><ele>222.0</ele><time>2026-04-04T15:37:12Z</time></trkpt><trkpt lat="46.003312124280725" lon="8.32830443812621"><ele>222.0</ele><time>2026-04-04T15:37:13Z</time></trkpt><trkpt lat="46.00326907153437" lon="8.328468338174957"><ele>222.0</ele><time>2026-04-04T15:37:14Z</time></trkpt><trkpt lat="46.00322168033486" lon="8.328607881069674"><ele>222.0</ele><time>2026-04-04T15:37:15Z</time></trkpt><trkpt lat="46.00318092168177" lon="8.32871771516086"><ele>222.0</ele><time>2026-04-04T15:37:16Z</time></trkpt><trkpt lat="46.00315369988855" lon="8.328825859265267"><ele>222.0</ele><time>2026-04-04T15:37:17Z</time></trkpt><trkpt lat="46.003128362488155" lon="8.32893632290653"><ele>222.0</ele><time>2026-04-04T15:37:18Z</time></trkpt><trkpt lat="46.00309085853404" lon="8.329057324251677"><ele>222.0</ele><time>2026-04-04T15:37:19Z</time></trkpt><trkpt lat="46.00305423984361" lon="8.329184981594274"><ele>222.0</ele><time>2026-04-04T15:37:20Z</time></trkpt><trkpt lat="46.00302467266775" lon="8.329324503816121"><ele>221.75</ele><time>2026-04-04T15:37:21Z</time></trkpt><trkpt lat="46.00299098858804" lon="8.329493877299836"><ele>221.5</ele><time>2026-04-04T15:37:22Z</time></trkpt><trkpt lat="46.002962907763624" lon="8.329655738514859"><ele>221.25</ele><time>2026-04-04T15:37:23Z</time></trkpt><trkpt lat="46.00290102467014" lon="8.32981312724707"><ele>221.0</ele><time>2026-04-04T15:37:24Z</time></trkpt><trkpt lat="46.00285532257575" lon="8.329985549730827"><ele>220.75</ele><time>2026-04-04T15:37:25Z</time></trkpt><trkpt lat="46.0028104692114" lon="8.330155287207429"><ele>220.5</ele><time>2026-04-04T15:37:26Z</time></trkpt><trkpt lat="46.002767630325266" lon="8.33034058952527"><ele>220.25</ele><time>2026-04-04T15:37:27Z</time></trkpt><trkpt lat="46.00272067528847" lon="8.330527573654544"><ele>220.0</ele><time>2026-04-04T15:37:28Z</time></trkpt><trkpt lat="46.002676890332" lon="8.330696293050622"><ele>220.0</ele><time>2026-04-04T15:37:29Z</time></trkpt><trkpt lat="46.00262744057367" lon="8.330889489712742"><ele>220.0</ele><time>2026-04-04T15:37:30Z</time></trkpt><trkpt lat="46.00258091320449" lon="8.331078475141066"><ele>220.0</ele><time>2026-04-04T15:37:31Z</time></trkpt><trkpt lat="46.002531094688536" lon="8.33126996298111"><ele>220.0</ele><time>2026-04-04T15:37:32Z</time></trkpt><trkpt lat="46.00248211021096" lon="8.33146206854818"><ele>219.0</ele><time>2026-04-04T15:37:33Z</time></trkpt><trkpt lat="46.00243081466583" lon="8.331663740608196"><ele>218.0</ele><time>2026-04-04T15:37:34Z</time></trkpt><trkpt lat="46.002384716502036" lon="8.331868942645688"><ele>217.0</ele><time>2026-04-04T15:37:35Z</time></trkpt><trkpt lat="46.00233349660335" lon="8.332076009944165"><ele>217.33333333333331</ele><time>2026-04-04T15:37:36Z</time></trkpt><trkpt lat="46.002281606983324" lon="8.332278423404938"><ele>217.66666666666669</ele><time>2026-04-04T15:37:37Z</time></trkpt><trkpt lat="46.00223172560207" lon="8.332483091140803"><ele>218.0</ele><time>2026-04-04T15:37:38Z</time></trkpt><trkpt lat="46.002185816006865" lon="8.332688163277203"><ele>218.0</ele><time>2026-04-04T15:37:39Z</time></trkpt><trkpt lat="46.002134253808954" lon="8.33289019867066"><ele>218.0</ele><time>2026-04-04T15:37:40Z</time></trkpt><trkpt lat="46.00208176642886" lon="8.333094283971947"><ele>218.0</ele><time>2026-04-04T15:37:41Z</time></trkpt><trkpt lat="46.00203224893617" lon="8.333303325762502"><ele>218.0</ele><time>2026-04-04T15:37:42Z</time></trkpt><trkpt lat="46.001979500162314" lon="8.333508708465267"><ele>218.0</ele><time>2026-04-04T15:37:43Z</time></trkpt><trkpt lat="46.001923500369436" lon="8.33372252649094"><ele>218.0</ele><time>2026-04-04T15:37:44Z</time></trkpt><trkpt lat="46.001865591809704" lon="8.333945011233517"><ele>217.0</ele><time>2026-04-04T15:37:45Z</time></trkpt><trkpt lat="46.00181093707509" lon="8.334165210577531"><ele>216.0</ele><time>2026-04-04T15:37:46Z</time></trkpt><trkpt lat="46.001756105410095" lon="8.334389525622331"><ele>215.0</ele><time>2026-04-04T15:37:47Z</time></trkpt><trkpt lat="46.00170029796294" lon="8.3346170405639"><ele>214.33333333333334</ele><time>2026-04-04T15:37:48Z</time></trkpt><trkpt lat="46.00164145928529" lon="8.334842106451134"><ele>213.66666666666669</ele><time>2026-04-04T15:37:49Z</time></trkpt><trkpt lat="46.00158601243047" lon="8.335058438213704"><ele>213.0</ele><time>2026-04-04T15:37:50Z</time></trkpt><trkpt lat="46.00154161938862" lon="8.335256924407522"><ele>213.0</ele><time>2026-04-04T15:37:51Z</time></trkpt><trkpt lat="46.00149702639067" lon="8.335433795283988"><ele>213.0</ele><time>2026-04-04T15:37:52Z</time></trkpt><trkpt lat="46.001457149477694" lon="8.335591482561082"><ele>213.0</ele><time>2026-04-04T15:37:53Z</time></trkpt><trkpt lat="46.00142215015304" lon="8.335735208290137"><ele>213.0</ele><time>2026-04-04T15:37:54Z</time></trkpt><trkpt lat="46.00139146768909" lon="8.33585718611158"><ele>213.0</ele><time>2026-04-04T15:37:55Z</time></trkpt><trkpt lat="46.00135915273156" lon="8.335986797649502"><ele>213.16666666666666</ele><time>2026-04-04T15:37:56Z</time></trkpt><trkpt lat="46.00133558462376" lon="8.336126044178721"><ele>213.33333333333331</ele><time>2026-04-04T15:37:57Z</time></trkpt><trkpt lat="46.001302293855076" lon="8.336243068807049"><ele>213.5</ele><time>2026-04-04T15:37:58Z</time></trkpt><trkpt lat="46.00127185120706" lon="8.336350536786501"><ele>213.66666666666666</ele><time>2026-04-04T15:37:59Z</time></trkpt><trkpt lat="46.00124961752222" lon="8.336442192993612"><ele>213.83333333333331</ele><time>2026-04-04T15:38:00Z</time></trkpt><trkpt lat="46.00121061927591" lon="8.336594401212583"><ele>214.0</ele><time>2026-04-04T15:38:02Z</time></trkpt><trkpt lat="46.001184180304925" lon="8.33670693498755"><ele>213.99999999999997</ele><time>2026-04-04T15:38:04Z</time></trkpt><trkpt lat="46.00115471281459" lon="8.336830834135398"><ele>214.0</ele><time>2026-04-04T15:38:13Z</time></trkpt><trkpt lat="46.0011329043333" lon="8.336926536391626"><ele>214.0</ele><time>2026-04-04T15:38:14Z</time></trkpt><trkpt lat="46.00110053061974" lon="8.337025066324726"><ele>214.0</ele><time>2026-04-04T15:38:15Z</time></trkpt><trkpt lat="46.00107367624853" lon="8.337141782493768"><ele>213.99999999999997</ele><time>2026-04-04T15:38:16Z</time></trkpt><trkpt lat="46.00104258135163" lon="8.337279132430215"><ele>214.0</ele><time>2026-04-04T15:38:17Z</time></trkpt><trkpt lat="46.001009028919434" lon="8.337418154414234"><ele>214.0</ele><time>2026-04-04T15:38:18Z</time></trkpt><trkpt lat="46.00096729767606" lon="8.337577625892424"><ele>214.0</ele><time>2026-04-04T15:38:19Z</time></trkpt><trkpt lat="46.000928882729056" lon="8.33774133081986"><ele>214.0</ele><time>2026-04-04T15:38:20Z</time></trkpt><trkpt lat="46.00088657543801" lon="8.337904631972219"><ele>214.0</ele><time>2026-04-04T15:38:21Z</time></trkpt><trkpt lat="46.00084624693665" lon="8.338068605566578"><ele>213.5</ele><time>2026-04-04T15:38:22Z</time></trkpt><trkpt lat="46.00080200142461" lon="8.33824756120229"><ele>213.0</ele><time>2026-04-04T15:38:23Z</time></trkpt><trkpt lat="46.00075795178904" lon="8.33842576210656"><ele>212.5</ele><time>2026-04-04T15:38:24Z</time></trkpt><trkpt lat="46.00071219183338" lon="8.338603017552119"><ele>212.0</ele><time>2026-04-04T15:38:25Z</time></trkpt><trkpt lat="46.00066490027487" lon="8.33878743996208"><ele>213.33333333333334</ele><time>2026-04-04T15:38:26Z</time></trkpt><trkpt lat="46.000612383145516" lon="8.338977115181788"><ele>214.66666666666669</ele><time>2026-04-04T15:38:26.999Z</time></trkpt><trkpt lat="46.00056180654537" lon="8.339181723477793"><ele>216.0</ele><time>2026-04-04T15:38:27.999Z</time></trkpt><trkpt lat="46.00051157698999" lon="8.33939827668177"><ele>216.0</ele><time>2026-04-04T15:38:28.999Z</time></trkpt><trkpt lat="46.0004547286346" lon="8.339605884609243"><ele>216.0</ele><time>2026-04-04T15:38:29.999Z</time></trkpt><trkpt lat="46.0004026875261" lon="8.339796476353063"><ele>216.0</ele><time>2026-04-04T15:38:30.999Z</time></trkpt><trkpt lat="46.00035357737846" lon="8.339991688483819"><ele>216.0</ele><time>2026-04-04T15:38:31.999Z</time></trkpt><trkpt lat="46.00030692560319" lon="8.340192581444125"><ele>216.0</ele><time>2026-04-04T15:38:32.999Z</time></trkpt><trkpt lat="46.000257389702995" lon="8.340404088885744"><ele>216.0</ele><time>2026-04-04T15:38:33.999Z</time></trkpt><trkpt lat="46.00020724924004" lon="8.34061180486683"><ele>216.0</ele><time>2026-04-04T15:38:34.999Z</time></trkpt><trkpt lat="46.0001517908242" lon="8.34079944127643"><ele>216.0</ele><time>2026-04-04T15:38:35.999Z</time></trkpt><trkpt lat="46.00010630498872" lon="8.34097228134032"><ele>216.0</ele><time>2026-04-04T15:38:37Z</time></trkpt><trkpt lat="46.00006642454276" lon="8.341143811096739"><ele>216.0</ele><time>2026-04-04T15:38:38Z</time></trkpt><trkpt lat="46.00002126896918" lon="8.341327307219048"><ele>216.0</ele><time>2026-04-04T15:38:39Z</time></trkpt><trkpt lat="45.9999707340015" lon="8.341520335224384"><ele>216.0</ele><time>2026-04-04T15:38:40Z</time></trkpt><trkpt lat="45.9999214893526" lon="8.341721649597353"><ele>216.0</ele><time>2026-04-04T15:38:41Z</time></trkpt><trkpt lat="45.999870555450144" lon="8.341928580862575"><ele>216.0</ele><time>2026-04-04T15:38:42Z</time></trkpt><trkpt lat="45.999820198932525" lon="8.342129948831412"><ele>216.0</ele><time>2026-04-04T15:38:43Z</time></trkpt><trkpt lat="45.99976878356295" lon="8.34232790182172"><ele>216.0</ele><time>2026-04-04T15:38:44Z</time></trkpt><trkpt lat="45.9997163188664" lon="8.342527479807254"><ele>215.75</ele><time>2026-04-04T15:38:45Z</time></trkpt><trkpt lat="45.99966818711803" lon="8.342724539315746"><ele>215.5</ele><time>2026-04-04T15:38:46Z</time></trkpt><trkpt lat="45.9996190218769" lon="8.342926177118988"><ele>215.25</ele><time>2026-04-04T15:38:47Z</time></trkpt><trkpt lat="45.99956750708511" lon="8.343124636261429"><ele>215.0</ele><time>2026-04-04T15:38:48Z</time></trkpt><trkpt lat="45.9995162958107" lon="8.343318954737782"><ele>215.0</ele><time>2026-04-04T15:38:49Z</time></trkpt><trkpt lat="45.99946453714939" lon="8.34351669380345"><ele>215.0</ele><time>2026-04-04T15:38:50Z</time></trkpt><trkpt lat="45.99941201945301" lon="8.3437180818474"><ele>215.0</ele><time>2026-04-04T15:38:51Z</time></trkpt><trkpt lat="45.99935796845803" lon="8.34392628238364"><ele>215.33333333333334</ele><time>2026-04-04T15:38:52Z</time></trkpt><trkpt lat="45.99930319833888" lon="8.344135147808407"><ele>215.66666666666669</ele><time>2026-04-04T15:38:53Z</time></trkpt><trkpt lat="45.999246056355595" lon="8.34434178511239"><ele>216.0</ele><time>2026-04-04T15:38:54Z</time></trkpt><trkpt lat="45.999191194520506" lon="8.34455529266506"><ele>216.0</ele><time>2026-04-04T15:38:55Z</time></trkpt><trkpt lat="45.99913551012098" lon="8.344771130785798"><ele>216.0</ele><time>2026-04-04T15:38:56Z</time></trkpt><trkpt lat="45.99907962465813" lon="8.344983879139079"><ele>216.0</ele><time>2026-04-04T15:38:57Z</time></trkpt><trkpt lat="45.999027693448525" lon="8.345191531071837"><ele>216.0</ele><time>2026-04-04T15:38:58Z</time></trkpt><trkpt lat="45.99897707677519" lon="8.345400088873"><ele>216.0</ele><time>2026-04-04T15:38:59Z</time></trkpt><trkpt lat="45.99892423067705" lon="8.345616878404533"><ele>216.0</ele><time>2026-04-04T15:39:00Z</time></trkpt><trkpt lat="45.998874213819796" lon="8.345826749360592"><ele>216.33333333333331</ele><time>2026-04-04T15:39:01Z</time></trkpt><trkpt lat="45.99882250036224" lon="8.34604058403242"><ele>216.66666666666666</ele><time>2026-04-04T15:39:02Z</time></trkpt><trkpt lat="45.99877070612806" lon="8.346254009545058"><ele>217.0</ele><time>2026-04-04T15:39:03Z</time></trkpt><trkpt lat="45.9987170394398" lon="8.34646791407514"><ele>217.0</ele><time>2026-04-04T15:39:04Z</time></trkpt><trkpt lat="45.99866340118936" lon="8.346686273482323"><ele>217.0</ele><time>2026-04-04T15:39:05Z</time></trkpt><trkpt lat="45.99860261399493" lon="8.346906579222715"><ele>217.0</ele><time>2026-04-04T15:39:06Z</time></trkpt><trkpt lat="45.99854990526947" lon="8.347128623942787"><ele>217.33333333333331</ele><time>2026-04-04T15:39:07Z</time></trkpt><trkpt lat="45.99849246175435" lon="8.347356874440697"><ele>217.66666666666669</ele><time>2026-04-04T15:39:08Z</time></trkpt><trkpt lat="45.998437794085724" lon="8.347582550023231"><ele>218.0</ele><time>2026-04-04T15:39:09Z</time></trkpt><trkpt lat="45.99838102891657" lon="8.347812969269624"><ele>217.66666666666669</ele><time>2026-04-04T15:39:10Z</time></trkpt><trkpt lat="45.99832528145418" lon="8.34804211311948"><ele>217.33333333333331</ele><time>2026-04-04T15:39:11Z</time></trkpt><trkpt lat="45.99827021933099" lon="8.348263610858103"><ele>217.0</ele><time>2026-04-04T15:39:12Z</time></trkpt><trkpt lat="45.99821289137161" lon="8.348483162400537"><ele>217.0</ele><time>2026-04-04T15:39:13Z</time></trkpt><trkpt lat="45.998156538370445" lon="8.348700959084347"><ele>217.0</ele><time>2026-04-04T15:39:14Z</time></trkpt><trkpt lat="45.99810612384858" lon="8.348909550547514"><ele>217.0</ele><time>2026-04-04T15:39:15Z</time></trkpt><trkpt lat="45.99805255442339" lon="8.349123760891045"><ele>217.66666666666666</ele><time>2026-04-04T15:39:16Z</time></trkpt><trkpt lat="45.997998982644795" lon="8.349343461062974"><ele>218.33333333333331</ele><time>2026-04-04T15:39:17Z</time></trkpt><trkpt lat="45.99794328268606" lon="8.34956955658735"><ele>219.0</ele><time>2026-04-04T15:39:18Z</time></trkpt><trkpt lat="45.99788599750284" lon="8.349794929870137"><ele>219.0</ele><time>2026-04-04T15:39:19Z</time></trkpt><trkpt lat="45.997830057581446" lon="8.350022994279069"><ele>219.0</ele><time>2026-04-04T15:39:20Z</time></trkpt><trkpt lat="45.99777282162214" lon="8.350252427398319"><ele>219.0</ele><time>2026-04-04T15:39:21Z</time></trkpt><trkpt lat="45.997715404399855" lon="8.350485343153665"><ele>218.33333333333331</ele><time>2026-04-04T15:39:22Z</time></trkpt><trkpt lat="45.99765592105827" lon="8.350714914517964"><ele>217.66666666666666</ele><time>2026-04-04T15:39:23Z</time></trkpt><trkpt lat="45.99759654601798" lon="8.350941335554573"><ele>217.0</ele><time>2026-04-04T15:39:24Z</time></trkpt><trkpt lat="45.99754308765045" lon="8.351165357116923"><ele>216.0</ele><time>2026-04-04T15:39:25Z</time></trkpt><trkpt lat="45.99748974239528" lon="8.35139228372231"><ele>215.0</ele><time>2026-04-04T15:39:26Z</time></trkpt><trkpt lat="45.99743513584368" lon="8.35161799786734"><ele>214.0</ele><time>2026-04-04T15:39:27Z</time></trkpt><trkpt lat="45.99738221513884" lon="8.351839211389459"><ele>214.0</ele><time>2026-04-04T15:39:28Z</time></trkpt><trkpt lat="45.99733299765327" lon="8.352066301051222"><ele>214.0</ele><time>2026-04-04T15:39:29Z</time></trkpt><trkpt lat="45.997284873934035" lon="8.352296169164712"><ele>214.0</ele><time>2026-04-04T15:39:30Z</time></trkpt><trkpt lat="45.997235705091086" lon="8.352527737940344"><ele>214.33333333333331</ele><time>2026-04-04T15:39:31Z</time></trkpt><trkpt lat="45.997181192671356" lon="8.35276252094321"><ele>214.66666666666669</ele><time>2026-04-04T15:39:32Z</time></trkpt><trkpt lat="45.99712491896126" lon="8.352994302346712"><ele>215.0</ele><time>2026-04-04T15:39:33Z</time></trkpt><trkpt lat="45.99706669644321" lon="8.353232807847277"><ele>215.0</ele><time>2026-04-04T15:39:34Z</time></trkpt><trkpt lat="45.997006561008355" lon="8.353476680725471"><ele>215.0</ele><time>2026-04-04T15:39:35Z</time></trkpt><trkpt lat="45.99694416532057" lon="8.35372290259249"><ele>215.0</ele><time>2026-04-04T15:39:36Z</time></trkpt><trkpt lat="45.99688555743861" lon="8.353970664349793"><ele>215.0</ele><time>2026-04-04T15:39:37Z</time></trkpt><trkpt lat="45.99682770892711" lon="8.354214594038666"><ele>215.0</ele><time>2026-04-04T15:39:38Z</time></trkpt><trkpt lat="45.99676781222412" lon="8.35445529788169"><ele>215.0</ele><time>2026-04-04T15:39:39Z</time></trkpt><trkpt lat="45.996713113638435" lon="8.3546921175226"><ele>214.66666666666669</ele><time>2026-04-04T15:39:40Z</time></trkpt><trkpt lat="45.99665016640186" lon="8.354936378662838"><ele>214.33333333333331</ele><time>2026-04-04T15:39:41Z</time></trkpt><trkpt lat="45.99658968221994" lon="8.355177491786149"><ele>214.0</ele><time>2026-04-04T15:39:42Z</time></trkpt><trkpt lat="45.99652974957452" lon="8.355417280262973"><ele>213.66666666666666</ele><time>2026-04-04T15:39:43Z</time></trkpt><trkpt lat="45.99646930592449" lon="8.355659535179566"><ele>213.33333333333331</ele><time>2026-04-04T15:39:44Z</time></trkpt><trkpt lat="45.99641017608351" lon="8.355903437229461"><ele>213.0</ele><time>2026-04-04T15:39:45Z</time></trkpt><trkpt lat="45.9963469719209" lon="8.356143106517704"><ele>212.66666666666669</ele><time>2026-04-04T15:39:46Z</time></trkpt><trkpt lat="45.99628380254223" lon="8.356379785083401"><ele>212.33333333333334</ele><time>2026-04-04T15:39:47Z</time></trkpt><trkpt lat="45.99622360175345" lon="8.356619435141544"><ele>212.0</ele><time>2026-04-04T15:39:48Z</time></trkpt><trkpt lat="45.996164095608215" lon="8.356854776199118"><ele>212.0</ele><time>2026-04-04T15:39:49Z</time></trkpt><trkpt lat="45.99610375772189" lon="8.35709013982026"><ele>212.0</ele><time>2026-04-04T15:39:50Z</time></trkpt><trkpt lat="45.99604684127389" lon="8.357327149913846"><ele>212.0</ele><time>2026-04-04T15:39:51Z</time></trkpt><trkpt lat="45.99598686712434" lon="8.357564130830491"><ele>212.66666666666669</ele><time>2026-04-04T15:39:52Z</time></trkpt><trkpt lat="45.995923851494005" lon="8.357800900870732"><ele>213.33333333333331</ele><time>2026-04-04T15:39:53Z</time></trkpt><trkpt lat="45.99586391799972" lon="8.358039202526317"><ele>214.0</ele><time>2026-04-04T15:39:54Z</time></trkpt><trkpt lat="45.99580558330518" lon="8.358278955745467"><ele>214.66666666666666</ele><time>2026-04-04T15:39:55Z</time></trkpt><trkpt lat="45.995742328329456" lon="8.35852254948526"><ele>215.33333333333331</ele><time>2026-04-04T15:39:56Z</time></trkpt><trkpt lat="45.99568227954098" lon="8.358766152959499"><ele>216.0</ele><time>2026-04-04T15:39:57Z</time></trkpt><trkpt lat="45.995617719735264" lon="8.359007034051803"><ele>215.66666666666669</ele><time>2026-04-04T15:39:58Z</time></trkpt><trkpt lat="45.99556062727769" lon="8.359249084099918"><ele>215.33333333333334</ele><time>2026-04-04T15:39:59Z</time></trkpt><trkpt lat="45.99549792330735" lon="8.359490326039369"><ele>215.0</ele><time>2026-04-04T15:40:00Z</time></trkpt><trkpt lat="45.995436038630444" lon="8.359729401807556"><ele>215.0</ele><time>2026-04-04T15:40:01Z</time></trkpt><trkpt lat="45.995375678921576" lon="8.359965082537705"><ele>215.0</ele><time>2026-04-04T15:40:02Z</time></trkpt><trkpt lat="45.99530903998709" lon="8.360208240836903"><ele>215.0</ele><time>2026-04-04T15:40:03Z</time></trkpt><trkpt lat="45.99524760844682" lon="8.360448189978486"><ele>215.0</ele><time>2026-04-04T15:40:04Z</time></trkpt><trkpt lat="45.99518495016476" lon="8.360686362674292"><ele>215.0</ele><time>2026-04-04T15:40:05Z</time></trkpt><trkpt lat="45.995122288827524" lon="8.36092624090564"><ele>215.0</ele><time>2026-04-04T15:40:06Z</time></trkpt><trkpt lat="45.99506591477478" lon="8.361163738663166"><ele>214.0</ele><time>2026-04-04T15:40:07Z</time></trkpt><trkpt lat="45.995006339369816" lon="8.361403460261704"><ele>213.0</ele><time>2026-04-04T15:40:08Z</time></trkpt><trkpt lat="45.994946222681" lon="8.361639500469575"><ele>212.0</ele><time>2026-04-04T15:40:09Z</time></trkpt><trkpt lat="45.99488374958553" lon="8.361870412390935"><ele>212.0</ele><time>2026-04-04T15:40:10Z</time></trkpt><trkpt lat="45.994828125722414" lon="8.362100377221417"><ele>212.0</ele><time>2026-04-04T15:40:11Z</time></trkpt><trkpt lat="45.99477722425981" lon="8.362329138056856"><ele>212.0</ele><time>2026-04-04T15:40:12Z</time></trkpt><trkpt lat="45.99473239479238" lon="8.362555129934595"><ele>215.33333333333334</ele><time>2026-04-04T15:40:13Z</time></trkpt><trkpt lat="45.99468595052972" lon="8.362775760082418"><ele>218.66666666666669</ele><time>2026-04-04T15:40:14Z</time></trkpt><trkpt lat="45.99464582862867" lon="8.362997492615468"><ele>222.0</ele><time>2026-04-04T15:40:15Z</time></trkpt><trkpt lat="45.99460320821834" lon="8.363227333464575"><ele>225.33333333333331</ele><time>2026-04-04T15:40:16Z</time></trkpt><trkpt lat="45.994562871828215" lon="8.363458430225325"><ele>228.66666666666666</ele><time>2026-04-04T15:40:17Z</time></trkpt><trkpt lat="45.99452824503684" lon="8.363695433774348"><ele>232.0</ele><time>2026-04-04T15:40:18Z</time></trkpt><trkpt lat="45.994497166407584" lon="8.363937290985206"><ele>232.0</ele><time>2026-04-04T15:40:19Z</time></trkpt><trkpt lat="45.99446984579314" lon="8.364186627014966"><ele>232.0</ele><time>2026-04-04T15:40:20Z</time></trkpt><trkpt lat="45.99444475624157" lon="8.364422979739539"><ele>232.0</ele><time>2026-04-04T15:40:21Z</time></trkpt><trkpt lat="45.99441460727609" lon="8.364656374972743"><ele>230.25</ele><time>2026-04-04T15:40:22Z</time></trkpt><trkpt lat="45.99438470178104" lon="8.36487999629174"><ele>228.5</ele><time>2026-04-04T15:40:23Z</time></trkpt><trkpt lat="45.99436051111368" lon="8.365079732203215"><ele>226.75</ele><time>2026-04-04T15:40:24Z</time></trkpt><trkpt lat="45.99434109806236" lon="8.365265225800853"><ele>225.0</ele><time>2026-04-04T15:40:25Z</time></trkpt><trkpt lat="45.994317912206206" lon="8.36545290436214"><ele>223.5</ele><time>2026-04-04T15:40:26Z</time></trkpt><trkpt lat="45.99429556493652" lon="8.365648161988963"><ele>222.0</ele><time>2026-04-04T15:40:27Z</time></trkpt><trkpt lat="45.99427269686674" lon="8.365840187873236"><ele>220.5</ele><time>2026-04-04T15:40:28Z</time></trkpt><trkpt lat="45.99425502502526" lon="8.366016362220032"><ele>219.0</ele><time>2026-04-04T15:40:29Z</time></trkpt><trkpt lat="45.994233877454434" lon="8.366181088579436"><ele>219.0</ele><time>2026-04-04T15:40:30Z</time></trkpt><trkpt lat="45.99421101406566" lon="8.36636089333562"><ele>219.0</ele><time>2026-04-04T15:40:31Z</time></trkpt><trkpt lat="45.99419083004557" lon="8.366551623089412"><ele>219.0</ele><time>2026-04-04T15:40:32.001Z</time></trkpt><trkpt lat="45.994170682739686" lon="8.366745934646927"><ele>219.0</ele><time>2026-04-04T15:40:33Z</time></trkpt><trkpt lat="45.994150928130374" lon="8.366936921757466"><ele>218.5</ele><time>2026-04-04T15:40:34Z</time></trkpt><trkpt lat="45.99413844696943" lon="8.367118902621113"><ele>218.0</ele><time>2026-04-04T15:40:35Z</time></trkpt><trkpt lat="45.99414031043942" lon="8.367290533241272"><ele>217.5</ele><time>2026-04-04T15:40:36Z</time></trkpt><trkpt lat="45.99415696958972" lon="8.367467215316925"><ele>217.0</ele><time>2026-04-04T15:40:37Z</time></trkpt><trkpt lat="45.99418676687824" lon="8.367639573449987"><ele>217.0</ele><time>2026-04-04T15:40:38Z</time></trkpt><trkpt lat="45.994237018454776" lon="8.367806384851265"><ele>217.0</ele><time>2026-04-04T15:40:39Z</time></trkpt><trkpt lat="45.99431034943178" lon="8.367963278486819"><ele>217.0</ele><time>2026-04-04T15:40:40Z</time></trkpt><trkpt lat="45.994407476620424" lon="8.368110791810231"><ele>217.0</ele><time>2026-04-04T15:40:41Z</time></trkpt><trkpt lat="45.994538953488316" lon="8.368261103452367"><ele>217.0</ele><time>2026-04-04T15:40:42Z</time></trkpt><trkpt lat="45.99468346262946" lon="8.368437767484266"><ele>217.0</ele><time>2026-04-04T15:40:43Z</time></trkpt><trkpt lat="45.99483856147958" lon="8.368643814644638"><ele>217.0</ele><time>2026-04-04T15:40:44Z</time></trkpt><trkpt lat="45.9949832180375" lon="8.368841488431794"><ele>217.0</ele><time>2026-04-04T15:40:45Z</time></trkpt><trkpt lat="45.995109944973876" lon="8.369009070622901"><ele>217.0</ele><time>2026-04-04T15:40:46Z</time></trkpt><trkpt lat="45.995220478086736" lon="8.36916108701796"><ele>217.0</ele><time>2026-04-04T15:40:47Z</time></trkpt><trkpt lat="45.99531969672328" lon="8.369307902986984"><ele>217.0</ele><time>2026-04-04T15:40:48Z</time></trkpt><trkpt lat="45.99540687598774" lon="8.36946660785589"><ele>217.0</ele><time>2026-04-04T15:40:49Z</time></trkpt><trkpt lat="45.99544891943871" lon="8.369647663547061"><ele>217.0</ele><time>2026-04-04T15:40:50Z</time></trkpt><trkpt lat="45.99548624627105" lon="8.369832373993292"><ele>217.0</ele><time>2026-04-04T15:40:51Z</time></trkpt><trkpt lat="45.99550031388332" lon="8.370029595855865"><ele>216.0</ele><time>2026-04-04T15:40:52Z</time></trkpt><trkpt lat="45.99549473712633" lon="8.370230247045072"><ele>215.0</ele><time>2026-04-04T15:40:53Z</time></trkpt><trkpt lat="45.99546107629852" lon="8.370439083319367"><ele>214.0</ele><time>2026-04-04T15:40:54Z</time></trkpt><trkpt lat="45.99541425445627" lon="8.370654296811145"><ele>213.0</ele><time>2026-04-04T15:40:55Z</time></trkpt><trkpt lat="45.99537312113027" lon="8.370883332340435"><ele>213.0</ele><time>2026-04-04T15:40:56Z</time></trkpt><trkpt lat="45.995318624317264" lon="8.37110920304388"><ele>213.0</ele><time>2026-04-04T15:40:57Z</time></trkpt><trkpt lat="45.99526240532931" lon="8.371333339467283"><ele>213.0</ele><time>2026-04-04T15:40:58Z</time></trkpt><trkpt lat="45.99521067597414" lon="8.371552202879487"><ele>213.25</ele><time>2026-04-04T15:40:59Z</time></trkpt><trkpt lat="45.99516331661269" lon="8.3717472000561"><ele>213.5</ele><time>2026-04-04T15:41:00Z</time></trkpt><trkpt lat="45.9951161293204" lon="8.371943932650867"><ele>213.75</ele><time>2026-04-04T15:41:01Z</time></trkpt><trkpt lat="45.995068135105846" lon="8.372140089814167"><ele>214.0</ele><time>2026-04-04T15:41:02Z</time></trkpt><trkpt lat="45.995023014811096" lon="8.372335619225138"><ele>213.5</ele><time>2026-04-04T15:41:03Z</time></trkpt><trkpt lat="45.994975925882464" lon="8.3725278642137"><ele>213.0</ele><time>2026-04-04T15:41:04Z</time></trkpt><trkpt lat="45.994927673036884" lon="8.372720486886323"><ele>212.5</ele><time>2026-04-04T15:41:05Z</time></trkpt><trkpt lat="45.99487786602437" lon="8.372912375584354"><ele>212.0</ele><time>2026-04-04T15:41:06Z</time></trkpt><trkpt lat="45.99483252341627" lon="8.37311165441542"><ele>212.0</ele><time>2026-04-04T15:41:07Z</time></trkpt><trkpt lat="45.994784251482585" lon="8.373323160920659"><ele>212.0</ele><time>2026-04-04T15:41:08Z</time></trkpt><trkpt lat="45.994736053953275" lon="8.37353635433496"><ele>212.0</ele><time>2026-04-04T15:41:09Z</time></trkpt><trkpt lat="45.994685679706095" lon="8.373751492703752"><ele>212.66666666666669</ele><time>2026-04-04T15:41:10Z</time></trkpt><trkpt lat="45.99463294116946" lon="8.373971635889644"><ele>213.33333333333331</ele><time>2026-04-04T15:41:11Z</time></trkpt><trkpt lat="45.994580095953395" lon="8.374190957436713"><ele>214.0</ele><time>2026-04-04T15:41:12Z</time></trkpt><trkpt lat="45.994527589894275" lon="8.374409494716268"><ele>214.0</ele><time>2026-04-04T15:41:13Z</time></trkpt><trkpt lat="45.99448046157754" lon="8.37463196133807"><ele>214.0</ele><time>2026-04-04T15:41:14Z</time></trkpt><trkpt lat="45.99443405141332" lon="8.3748481678185"><ele>214.0</ele><time>2026-04-04T15:41:15Z</time></trkpt><trkpt lat="45.994384440074604" lon="8.375040436174753"><ele>214.0</ele><time>2026-04-04T15:41:16Z</time></trkpt><trkpt lat="45.99434275637815" lon="8.375211853802151"><ele>214.0</ele><time>2026-04-04T15:41:17Z</time></trkpt><trkpt lat="45.99430034208179" lon="8.375392802605322"><ele>214.0</ele><time>2026-04-04T15:41:18Z</time></trkpt><trkpt lat="45.99426142546121" lon="8.375577152099977"><ele>214.0</ele><time>2026-04-04T15:41:19Z</time></trkpt><trkpt lat="45.99422331287752" lon="8.37575903358855"><ele>214.0</ele><time>2026-04-04T15:41:20Z</time></trkpt><trkpt lat="45.99418725858597" lon="8.375927420576152"><ele>213.99999999999997</ele><time>2026-04-04T15:41:21Z</time></trkpt><trkpt lat="45.994151931910224" lon="8.376076230350366"><ele>213.99999999999997</ele><time>2026-04-04T15:41:22Z</time></trkpt><trkpt lat="45.99411783873709" lon="8.376223432165846"><ele>214.0</ele><time>2026-04-04T15:41:23Z</time></trkpt><trkpt lat="45.99408369315322" lon="8.376364456313075"><ele>214.0</ele><time>2026-04-04T15:41:24Z</time></trkpt><trkpt lat="45.99404843552546" lon="8.376486771215014"><ele>213.33333333333331</ele><time>2026-04-04T15:41:25Z</time></trkpt><trkpt lat="45.99401025084549" lon="8.376596093113665"><ele>212.66666666666666</ele><time>2026-04-04T15:41:26Z</time></trkpt><trkpt lat="45.99395902798859" lon="8.37667808563157"><ele>212.0</ele><time>2026-04-04T15:41:27Z</time></trkpt><trkpt lat="45.99390227675239" lon="8.37673197515902"><ele>211.33333333333331</ele><time>2026-04-04T15:41:28Z</time></trkpt><trkpt lat="45.993833011342936" lon="8.376789052679511"><ele>210.66666666666666</ele><time>2026-04-04T15:41:29Z</time></trkpt><trkpt lat="45.99376850667667" lon="8.376857425723006"><ele>210.0</ele><time>2026-04-04T15:41:30Z</time></trkpt><trkpt lat="45.99365722750627" lon="8.376839169004281"><ele>210.0</ele><time>2026-04-04T15:41:31Z</time></trkpt><trkpt lat="45.99358576148959" lon="8.376877177905273"><ele>210.0</ele><time>2026-04-04T15:41:32Z</time></trkpt><trkpt lat="45.99351610918929" lon="8.376973676307008"><ele>210.0</ele><time>2026-04-04T15:41:33Z</time></trkpt><trkpt lat="45.9934812008049" lon="8.377105253010354"><ele>210.0</ele><time>2026-04-04T15:41:34Z</time></trkpt><trkpt lat="45.99347932426928" lon="8.37726957410542"><ele>210.0</ele><time>2026-04-04T15:41:35Z</time></trkpt><trkpt lat="45.99350246932688" lon="8.37745751839256"><ele>210.25</ele><time>2026-04-04T15:41:36Z</time></trkpt><trkpt lat="45.993548101838385" lon="8.377638272693599"><ele>210.5</ele><time>2026-04-04T15:41:37Z</time></trkpt><trkpt lat="45.9935882925263" lon="8.37781518688612"><ele>210.75</ele><time>2026-04-04T15:41:38Z</time></trkpt><trkpt lat="45.99360227749189" lon="8.377967625019393"><ele>211.0</ele><time>2026-04-04T15:41:39Z</time></trkpt><trkpt lat="45.993592073930245" lon="8.378112427930883"><ele>211.0</ele><time>2026-04-04T15:41:40Z</time></trkpt><trkpt lat="45.993553472262256" lon="8.378236985818775"><ele>211.0</ele><time>2026-04-04T15:41:41Z</time></trkpt><trkpt lat="45.99348955959919" lon="8.378342220470216"><ele>211.0</ele><time>2026-04-04T15:41:42Z</time></trkpt><trkpt lat="45.99338833065466" lon="8.37836352439464"><ele>211.0</ele><time>2026-04-04T15:41:43Z</time></trkpt><trkpt lat="45.99330848912797" lon="8.378426612890227"><ele>211.0</ele><time>2026-04-04T15:41:44Z</time></trkpt><trkpt lat="45.993220431260774" lon="8.378467299636064"><ele>211.0</ele><time>2026-04-04T15:41:45Z</time></trkpt><trkpt lat="45.993128571496364" lon="8.378469854024951"><ele>211.0</ele><time>2026-04-04T15:41:46Z</time></trkpt><trkpt lat="45.99303583209012" lon="8.378440670899241"><ele>211.0</ele><time>2026-04-04T15:41:47Z</time></trkpt><trkpt lat="45.992952217265795" lon="8.37833866452847"><ele>211.0</ele><time>2026-04-04T15:41:48Z</time></trkpt><trkpt lat="45.992865423755426" lon="8.37821573103244"><ele>211.0</ele><time>2026-04-04T15:41:49Z</time></trkpt><trkpt lat="45.99277244474129" lon="8.378095961666546"><ele>211.25</ele><time>2026-04-04T15:41:50Z</time></trkpt><trkpt lat="45.99266091436333" lon="8.37800917591249"><ele>211.5</ele><time>2026-04-04T15:41:51Z</time></trkpt><trkpt lat="45.99256470881963" lon="8.377953492099877"><ele>211.75</ele><time>2026-04-04T15:41:52Z</time></trkpt><trkpt lat="45.99244954652763" lon="8.377934492408004"><ele>212.0</ele><time>2026-04-04T15:41:53Z</time></trkpt><trkpt lat="45.9923369543594" lon="8.377923546082922"><ele>212.75</ele><time>2026-04-04T15:41:54Z</time></trkpt><trkpt lat="45.992219091152016" lon="8.377941643942055"><ele>213.5</ele><time>2026-04-04T15:41:55Z</time></trkpt><trkpt lat="45.992095332553376" lon="8.37796006439036"><ele>214.25</ele><time>2026-04-04T15:41:56Z</time></trkpt><trkpt lat="45.9919701179952" lon="8.377978701540645"><ele>215.0</ele><time>2026-04-04T15:41:57Z</time></trkpt><trkpt lat="45.991837333412136" lon="8.37799846543336"><ele>214.0</ele><time>2026-04-04T15:41:58Z</time></trkpt><trkpt lat="45.99170183375841" lon="8.378018633450695"><ele>213.0</ele><time>2026-04-04T15:41:59Z</time></trkpt><trkpt lat="45.991560302430884" lon="8.378039699226717"><ele>212.0</ele><time>2026-04-04T15:42:00Z</time></trkpt><trkpt lat="45.991412049796004" lon="8.378060935821253"><ele>211.0</ele><time>2026-04-04T15:42:01Z</time></trkpt><trkpt lat="45.991259138972104" lon="8.378100510115125"><ele>210.66666666666666</ele><time>2026-04-04T15:42:02Z</time></trkpt><trkpt lat="45.991108251747576" lon="8.378191445044193"><ele>210.33333333333331</ele><time>2026-04-04T15:42:03Z</time></trkpt><trkpt lat="45.99094996890021" lon="8.37825627374691"><ele>210.0</ele><time>2026-04-04T15:42:04Z</time></trkpt><trkpt lat="45.990797265951954" lon="8.37834665129026"><ele>209.66666666666669</ele><time>2026-04-04T15:42:05Z</time></trkpt><trkpt lat="45.99064829487138" lon="8.378435805639933"><ele>209.33333333333334</ele><time>2026-04-04T15:42:06Z</time></trkpt><trkpt lat="45.99049285516819" lon="8.378526735632505"><ele>209.0</ele><time>2026-04-04T15:42:07Z</time></trkpt><trkpt lat="45.990339340129" lon="8.378616539682596"><ele>209.0</ele><time>2026-04-04T15:42:08Z</time></trkpt><trkpt lat="45.990180583224976" lon="8.378710344139906"><ele>209.0</ele><time>2026-04-04T15:42:09Z</time></trkpt><trkpt lat="45.99001638140934" lon="8.378807652724255"><ele>209.0</ele><time>2026-04-04T15:42:10Z</time></trkpt><trkpt lat="45.989852598053005" lon="8.37890467301709"><ele>209.66666666666669</ele><time>2026-04-04T15:42:11Z</time></trkpt><trkpt lat="45.989683551413215" lon="8.379004801623253"><ele>210.33333333333331</ele><time>2026-04-04T15:42:12Z</time></trkpt><trkpt lat="45.98952481269868" lon="8.37912302218431"><ele>211.0</ele><time>2026-04-04T15:42:13Z</time></trkpt><trkpt lat="45.98936217485719" lon="8.379195157258197"><ele>211.0</ele><time>2026-04-04T15:42:14Z</time></trkpt><trkpt lat="45.98921815694149" lon="8.379279646899047"><ele>211.0</ele><time>2026-04-04T15:42:15Z</time></trkpt><trkpt lat="45.98908119951258" lon="8.379360389001006"><ele>211.0</ele><time>2026-04-04T15:42:16Z</time></trkpt><trkpt lat="45.98894842045604" lon="8.37944087028111"><ele>211.0</ele><time>2026-04-04T15:42:17.001Z</time></trkpt><trkpt lat="45.98883360514731" lon="8.379521711026086"><ele>210.60000000000002</ele><time>2026-04-04T15:42:18.001Z</time></trkpt><trkpt lat="45.988733793346995" lon="8.379607093671925"><ele>210.2</ele><time>2026-04-04T15:42:19.001Z</time></trkpt><trkpt lat="45.98864580722365" lon="8.379695081034956"><ele>209.8</ele><time>2026-04-04T15:42:20.001Z</time></trkpt><trkpt lat="45.98859476737772" lon="8.379839035744679"><ele>209.39999999999998</ele><time>2026-04-04T15:42:21.001Z</time></trkpt><trkpt lat="45.98855065863553" lon="8.379982352321417"><ele>209.0</ele><time>2026-04-04T15:42:22.001Z</time></trkpt><trkpt lat="45.988525625566915" lon="8.380111142630723"><ele>209.0</ele><time>2026-04-04T15:42:23.001Z</time></trkpt><trkpt lat="45.988492113389434" lon="8.380230349913697"><ele>209.0</ele><time>2026-04-04T15:42:24.001Z</time></trkpt><trkpt lat="45.98831326520196" lon="8.380239898606668"><ele>209.0</ele><time>2026-04-04T15:42:25.001Z</time></trkpt><trkpt lat="45.98825214559614" lon="8.380384800176108"><ele>209.0</ele><time>2026-04-04T15:42:26.001Z</time></trkpt><trkpt lat="45.988191918940124" lon="8.38056529033181"><ele>209.0</ele><time>2026-04-04T15:42:27.001Z</time></trkpt><trkpt lat="45.98814374614237" lon="8.380713778345344"><ele>209.0</ele><time>2026-04-04T15:42:28.001Z</time></trkpt><trkpt lat="45.98809242213501" lon="8.38085141032307"><ele>209.0</ele><time>2026-04-04T15:42:29.001Z</time></trkpt><trkpt lat="45.988041759754054" lon="8.38097975916177"><ele>209.0</ele><time>2026-04-04T15:42:30.001Z</time></trkpt><trkpt lat="45.98798964352656" lon="8.38110079537699"><ele>209.0</ele><time>2026-04-04T15:42:31.001Z</time></trkpt><trkpt lat="45.987937076821986" lon="8.381204744885485"><ele>209.00000000000003</ele><time>2026-04-04T15:42:32.001Z</time></trkpt><trkpt lat="45.987883540645115" lon="8.381294876662414"><ele>209.0</ele><time>2026-04-04T15:42:33.001Z</time></trkpt><trkpt lat="45.98783332581244" lon="8.381369371818572"><ele>209.0</ele><time>2026-04-04T15:42:34.001Z</time></trkpt><trkpt lat="45.987767342872196" lon="8.381461105869016"><ele>209.0</ele><time>2026-04-04T15:42:35.001Z</time></trkpt><trkpt lat="45.987704024967385" lon="8.381540580516456"><ele>209.00000000000003</ele><time>2026-04-04T15:42:36.001Z</time></trkpt><trkpt lat="45.98763156327433" lon="8.38161851877484"><ele>209.0</ele><time>2026-04-04T15:42:37.001Z</time></trkpt><trkpt lat="45.9875594533575" lon="8.38168734262962"><ele>208.83333333333334</ele><time>2026-04-04T15:42:38.001Z</time></trkpt><trkpt lat="45.98748566592551" lon="8.381745685680235"><ele>208.66666666666669</ele><time>2026-04-04T15:42:39Z</time></trkpt><trkpt lat="45.98742051056448" lon="8.381793617456312"><ele>208.5</ele><time>2026-04-04T15:42:40Z</time></trkpt><trkpt lat="45.98736300995517" lon="8.381834296369858"><ele>208.33333333333331</ele><time>2026-04-04T15:42:41Z</time></trkpt><trkpt lat="45.98727237383986" lon="8.381894816171098"><ele>208.16666666666666</ele><time>2026-04-04T15:42:43Z</time></trkpt><trkpt lat="45.98721227115489" lon="8.381933397548055"><ele>208.0</ele><time>2026-04-04T15:42:45Z</time></trkpt><trkpt lat="45.987185120040465" lon="8.382023022209426"><ele>207.0</ele><time>2026-04-04T15:42:47Z</time></trkpt><trkpt lat="45.9873248210819" lon="8.382544162204933"><ele>206.0</ele><time>2026-04-04T15:42:48Z</time></trkpt><trkpt lat="45.98734775975276" lon="8.382687220872883"><ele>206.0</ele><time>2026-04-04T15:42:50Z</time></trkpt><trkpt lat="45.98734799497098" lon="8.38284111967255"><ele>206.0</ele><time>2026-04-04T15:42:52Z</time></trkpt><trkpt lat="45.98736611019684" lon="8.38298448623525"><ele>206.0</ele><time>2026-04-04T15:42:54Z</time></trkpt><trkpt lat="45.98740139780721" lon="8.383135639359455"><ele>206.0</ele><time>2026-04-04T15:42:56Z</time></trkpt><trkpt lat="45.98743707693716" lon="8.383283555084493"><ele>206.0</ele><time>2026-04-04T15:42:58Z</time></trkpt><trkpt lat="45.987466343694535" lon="8.383414595021465"><ele>206.20000000000002</ele><time>2026-04-04T15:43:00Z</time></trkpt><trkpt lat="45.98748578736023" lon="8.38355394959919"><ele>206.4</ele><time>2026-04-04T15:43:02Z</time></trkpt><trkpt lat="45.98751788066701" lon="8.38370087703833"><ele>206.6</ele><time>2026-04-04T15:43:04Z</time></trkpt><trkpt lat="45.987538086399475" lon="8.383798768360618"><ele>206.8</ele><time>2026-04-04T15:43:05Z</time></trkpt><trkpt lat="45.98754176647149" lon="8.383936337643824"><ele>207.0</ele><time>2026-04-04T15:43:07Z</time></trkpt><trkpt lat="45.9875639789859" lon="8.384076349916997"><ele>207.2</ele><time>2026-04-04T15:43:09Z</time></trkpt><trkpt lat="45.98757900883504" lon="8.38420483126569"><ele>207.39999999999998</ele><time>2026-04-04T15:43:11Z</time></trkpt><trkpt lat="45.987598737027554" lon="8.384355192358422"><ele>207.60000000000002</ele><time>2026-04-04T15:43:13Z</time></trkpt><trkpt lat="45.98761832409106" lon="8.38454701600902"><ele>207.8</ele><time>2026-04-04T15:43:15Z</time></trkpt><trkpt lat="45.987657471025564" lon="8.384681592118408"><ele>208.0</ele><time>2026-04-04T15:43:17Z</time></trkpt><trkpt lat="45.98770567973997" lon="8.38484748323471"><ele>208.0</ele><time>2026-04-04T15:43:18Z</time></trkpt><trkpt lat="45.98774879482218" lon="8.385023032441726"><ele>208.0</ele><time>2026-04-04T15:43:19Z</time></trkpt><trkpt lat="45.98778003783864" lon="8.385150662930458"><ele>208.0</ele><time>2026-04-04T15:43:20Z</time></trkpt><trkpt lat="45.98779925604218" lon="8.385255351601526"><ele>208.0</ele><time>2026-04-04T15:43:21Z</time></trkpt><trkpt lat="45.987838352491934" lon="8.385409252665083"><ele>208.0</ele><time>2026-04-04T15:43:23Z</time></trkpt><trkpt lat="45.987871900172124" lon="8.385524546938317"><ele>208.0</ele><time>2026-04-04T15:43:25Z</time></trkpt><trkpt lat="45.987895469766606" lon="8.385648612958235"><ele>208.0</ele><time>2026-04-04T15:45:13Z</time></trkpt><trkpt lat="45.98794293649488" lon="8.38580330917545"><ele>208.0</ele><time>2026-04-04T15:45:15Z</time></trkpt><trkpt lat="45.987977621590765" lon="8.385882334109017"><ele>208.0</ele><time>2026-04-04T15:45:16Z</time></trkpt><trkpt lat="45.98802709942856" lon="8.386022366875942"><ele>208.0</ele><time>2026-04-04T15:45:18Z</time></trkpt><trkpt lat="45.9880770879063" lon="8.386149965064291"><ele>207.99999999999997</ele><time>2026-04-04T15:45:20Z</time></trkpt><trkpt lat="45.98812750291265" lon="8.38628674086535"><ele>208.0</ele><time>2026-04-04T15:45:22Z</time></trkpt><trkpt lat="45.9881571860686" lon="8.386377020035695"><ele>208.0</ele><time>2026-04-04T15:45:23Z</time></trkpt><trkpt lat="45.98819272810329" lon="8.386533551063708"><ele>208.0</ele><time>2026-04-04T15:45:25Z</time></trkpt><trkpt lat="45.98823162249914" lon="8.386625487151694"><ele>207.99999999999997</ele><time>2026-04-04T15:45:26Z</time></trkpt><trkpt lat="45.988258475642084" lon="8.386716277227809"><ele>208.0</ele><time>2026-04-04T15:45:27Z</time></trkpt><trkpt lat="45.988320213521106" lon="8.386837749262288"><ele>207.99999999999997</ele><time>2026-04-04T15:45:29Z</time></trkpt><trkpt lat="45.98838918316852" lon="8.386787989021396"><ele>208.0</ele><time>2026-04-04T15:45:31Z</time></trkpt><trkpt lat="45.98846253258171" lon="8.38680677479421"><ele>208.0</ele><time>2026-04-04T15:45:44.001Z</time></trkpt><trkpt lat="45.98847239978936" lon="8.38693216788637"><ele>208.0</ele><time>2026-04-04T15:45:47.001Z</time></trkpt><trkpt lat="45.9884353880836" lon="8.387026575908012"><ele>207.99999999999997</ele><time>2026-04-04T15:45:49.001Z</time></trkpt><trkpt lat="45.98842039232495" lon="8.387144221451644"><ele>208.0</ele><time>2026-04-04T15:45:51.001Z</time></trkpt><trkpt lat="45.98841267066406" lon="8.3872797101478"><ele>207.99999999999997</ele><time>2026-04-04T15:45:53.001Z</time></trkpt><trkpt lat="45.988433152525275" lon="8.387421982219626"><ele>208.0</ele><time>2026-04-04T15:45:55.001Z</time></trkpt><trkpt lat="45.98846018783864" lon="8.387511811622373"><ele>208.0</ele><time>2026-04-04T15:45:56.001Z</time></trkpt><trkpt lat="45.988490215990154" lon="8.38760145911173"><ele>208.0</ele><time>2026-04-04T15:45:57.001Z</time></trkpt><trkpt lat="45.98852882027429" lon="8.387675761713629"><ele>207.99999999999997</ele><time>2026-04-04T15:45:58.001Z</time></trkpt><trkpt lat="45.988559708210545" lon="8.387786544654478"><ele>208.0</ele><time>2026-04-04T15:46:00.001Z</time></trkpt><trkpt lat="45.98860343021731" lon="8.38794568392174"><ele>207.66666666666666</ele><time>2026-04-04T15:46:02.001Z</time></trkpt><trkpt lat="45.98863487596287" lon="8.388049865901516"><ele>207.33333333333331</ele><time>2026-04-04T15:46:03.001Z</time></trkpt><trkpt lat="45.988679376877926" lon="8.388139459307736"><ele>207.0</ele><time>2026-04-04T15:46:04.001Z</time></trkpt><trkpt lat="45.988715652153104" lon="8.388214408335577"><ele>206.66666666666669</ele><time>2026-04-04T15:46:05.001Z</time></trkpt><trkpt lat="45.98878675716551" lon="8.388362788402317"><ele>206.33333333333334</ele><time>2026-04-04T15:46:07.001Z</time></trkpt><trkpt lat="45.98882055747363" lon="8.388442562282863"><ele>206.0</ele><time>2026-04-04T15:46:08.001Z</time></trkpt><trkpt lat="45.988860418513624" lon="8.388596091537476"><ele>206.00000000000003</ele><time>2026-04-04T15:46:10.001Z</time></trkpt><trkpt lat="45.98889422121223" lon="8.388735354346437"><ele>206.0</ele><time>2026-04-04T15:46:12.001Z</time></trkpt><trkpt lat="45.988951609052926" lon="8.388812682748673"><ele>206.0</ele><time>2026-04-04T15:46:14.001Z</time></trkpt><trkpt lat="45.98902059231523" lon="8.388839183261657"><ele>206.0</ele><time>2026-04-04T15:46:16.001Z</time></trkpt><trkpt lat="45.98909737460941" lon="8.388836646622956"><ele>206.00000000000003</ele><time>2026-04-04T15:46:17.001Z</time></trkpt><trkpt lat="45.98919884259526" lon="8.388834609607404"><ele>206.0</ele><time>2026-04-04T15:46:19.001Z</time></trkpt><trkpt lat="45.9893108974546" lon="8.388850116168246"><ele>206.60000000000002</ele><time>2026-04-04T15:46:21.001Z</time></trkpt><trkpt lat="45.9894206287994" lon="8.388834932520759"><ele>207.2</ele><time>2026-04-04T15:46:23.001Z</time></trkpt><trkpt lat="45.989519896429556" lon="8.388807168159264"><ele>207.8</ele><time>2026-04-04T15:46:25.001Z</time></trkpt><trkpt lat="45.98961961757736" lon="8.38876108509708"><ele>208.39999999999998</ele><time>2026-04-04T15:46:26.001Z</time></trkpt><trkpt lat="45.989721932914556" lon="8.388740475549268"><ele>209.0</ele><time>2026-04-04T15:46:28.001Z</time></trkpt><trkpt lat="45.9897779396292" lon="8.388633956579941"><ele>209.0</ele><time>2026-04-04T15:46:30.001Z</time></trkpt><trkpt lat="45.98978273075863" lon="8.388483473788499"><ele>209.0</ele><time>2026-04-04T15:46:32.001Z</time></trkpt><trkpt lat="45.98979095397932" lon="8.388316250918209"><ele>209.0</ele><time>2026-04-04T15:46:34.001Z</time></trkpt><trkpt lat="45.989779090987554" lon="8.388178986589645"><ele>209.0</ele><time>2026-04-04T15:46:36.001Z</time></trkpt><trkpt lat="45.98976954803462" lon="8.388015313058471"><ele>209.0</ele><time>2026-04-04T15:46:38.001Z</time></trkpt><trkpt lat="45.98977451359093" lon="8.387901963768547"><ele>209.50000000000003</ele><time>2026-04-04T15:46:40.001Z</time></trkpt><trkpt lat="45.98977166762015" lon="8.387792308650148"><ele>210.0</ele><time>2026-04-04T15:46:41.001Z</time></trkpt><trkpt lat="45.989770337252864" lon="8.387681932457511"><ele>210.5</ele><time>2026-04-04T15:46:43.001Z</time></trkpt><trkpt lat="45.9897932308189" lon="8.387582767121751"><ele>211.0</ele><time>2026-04-04T15:47:08Z</time></trkpt><trkpt lat="45.98981018061807" lon="8.3874575064423"><ele>211.50000000000003</ele><time>2026-04-04T15:47:10Z</time></trkpt><trkpt lat="45.989811373797735" lon="8.387332628940433"><ele>212.0</ele><time>2026-04-04T15:47:12Z</time></trkpt><trkpt lat="45.98978894873265" lon="8.387244150077768"><ele>211.39999999999998</ele><time>2026-04-04T15:47:13Z</time></trkpt><trkpt lat="45.98975314238863" lon="8.387118356730836"><ele>210.79999999999998</ele><time>2026-04-04T15:47:14Z</time></trkpt><trkpt lat="45.989741852472385" lon="8.387007683864601"><ele>210.2</ele><time>2026-04-04T15:47:15Z</time></trkpt><trkpt lat="45.98973983115244" lon="8.386848425619036"><ele>209.6</ele><time>2026-04-04T15:47:16Z</time></trkpt><trkpt lat="45.989744426115074" lon="8.386720084021048"><ele>209.0</ele><time>2026-04-04T15:47:17Z</time></trkpt><trkpt lat="45.989745999830355" lon="8.386587684189008"><ele>209.0</ele><time>2026-04-04T15:47:18Z</time></trkpt><trkpt lat="45.98975072906937" lon="8.386461327101243"><ele>209.0</ele><time>2026-04-04T15:47:19Z</time></trkpt><trkpt lat="45.98975676472388" lon="8.386314977656648"><ele>209.0</ele><time>2026-04-04T15:47:20Z</time></trkpt><trkpt lat="45.98977271425444" lon="8.386162603469922"><ele>209.0</ele><time>2026-04-04T15:47:21Z</time></trkpt><trkpt lat="45.98979634660225" lon="8.386022076990383"><ele>209.0</ele><time>2026-04-04T15:47:22Z</time></trkpt><trkpt lat="45.98981919400748" lon="8.385878249372615"><ele>209.0</ele><time>2026-04-04T15:47:23Z</time></trkpt><trkpt lat="45.98984658508006" lon="8.385741717125658"><ele>209.0</ele><time>2026-04-04T15:47:24Z</time></trkpt><trkpt lat="45.989864960078926" lon="8.38557311501932"><ele>209.0</ele><time>2026-04-04T15:47:25Z</time></trkpt><trkpt lat="45.98988583991592" lon="8.385387724789032"><ele>209.0</ele><time>2026-04-04T15:47:26Z</time></trkpt><trkpt lat="45.9899087156364" lon="8.38520400189731"><ele>209.0</ele><time>2026-04-04T15:47:27Z</time></trkpt><trkpt lat="45.98994376882228" lon="8.385031596291391"><ele>209.0</ele><time>2026-04-04T15:47:28Z</time></trkpt><trkpt lat="45.98997379400465" lon="8.384890491721551"><ele>209.0</ele><time>2026-04-04T15:47:29Z</time></trkpt><trkpt lat="45.99000200146966" lon="8.384756460676432"><ele>209.0</ele><time>2026-04-04T15:47:30Z</time></trkpt><trkpt lat="45.99000455200391" lon="8.3846336625038"><ele>209.0</ele><time>2026-04-04T15:47:31Z</time></trkpt><trkpt lat="45.9900111352959" lon="8.38450607076158"><ele>209.39999999999998</ele><time>2026-04-04T15:47:32Z</time></trkpt><trkpt lat="45.990026663827486" lon="8.384389727751863"><ele>209.8</ele><time>2026-04-04T15:47:33Z</time></trkpt><trkpt lat="45.99001938889275" lon="8.3842220510714"><ele>210.2</ele><time>2026-04-04T15:47:34Z</time></trkpt><trkpt lat="45.990027208192735" lon="8.384067247164444"><ele>210.60000000000002</ele><time>2026-04-04T15:47:35Z</time></trkpt><trkpt lat="45.9900667782499" lon="8.383937049271728"><ele>211.0</ele><time>2026-04-04T15:47:36Z</time></trkpt><trkpt lat="45.99007974729475" lon="8.383774377715714"><ele>211.0</ele><time>2026-04-04T15:47:37Z</time></trkpt><trkpt lat="45.99009989658014" lon="8.383632654410441"><ele>211.0</ele><time>2026-04-04T15:47:38Z</time></trkpt><trkpt lat="45.99010850250389" lon="8.383493432553724"><ele>211.0</ele><time>2026-04-04T15:47:39Z</time></trkpt><trkpt lat="45.99011020266133" lon="8.383338931549725"><ele>211.0</ele><time>2026-04-04T15:47:40Z</time></trkpt><trkpt lat="45.9901205669941" lon="8.383208354633666"><ele>211.0</ele><time>2026-04-04T15:47:41Z</time></trkpt><trkpt lat="45.990144907314146" lon="8.383076172861553"><ele>210.60000000000002</ele><time>2026-04-04T15:47:42Z</time></trkpt><trkpt lat="45.990192306476786" lon="8.382948511120706"><ele>210.2</ele><time>2026-04-04T15:47:43Z</time></trkpt><trkpt lat="45.990258274108484" lon="8.382839473205108"><ele>209.8</ele><time>2026-04-04T15:47:44Z</time></trkpt><trkpt lat="45.99034496340286" lon="8.382698104842087"><ele>209.39999999999998</ele><time>2026-04-04T15:47:45Z</time></trkpt><trkpt lat="45.99041539540624" lon="8.382585257165632"><ele>209.0</ele><time>2026-04-04T15:47:46Z</time></trkpt><trkpt lat="45.99047704121603" lon="8.382472474746125"><ele>209.0</ele><time>2026-04-04T15:47:47Z</time></trkpt><trkpt lat="45.99052308741604" lon="8.382370046886695"><ele>209.0</ele><time>2026-04-04T15:47:48Z</time></trkpt><trkpt lat="45.99055970134198" lon="8.382255933527855"><ele>209.0</ele><time>2026-04-04T15:47:49Z</time></trkpt><trkpt lat="45.99058860136636" lon="8.38210448938354"><ele>209.0</ele><time>2026-04-04T15:47:50Z</time></trkpt><trkpt lat="45.9906087840563" lon="8.38192555387753"><ele>209.0</ele><time>2026-04-04T15:47:51Z</time></trkpt><trkpt lat="45.99063038935992" lon="8.381771761527112"><ele>209.00000000000003</ele><time>2026-04-04T15:47:52Z</time></trkpt><trkpt lat="45.99066268116707" lon="8.381638912805176"><ele>209.0</ele><time>2026-04-04T15:47:53Z</time></trkpt><trkpt lat="45.990703900004725" lon="8.381533526891541"><ele>209.0</ele><time>2026-04-04T15:47:54Z</time></trkpt><trkpt lat="45.990770570605726" lon="8.381462570809823"><ele>209.0</ele><time>2026-04-04T15:47:55Z</time></trkpt><trkpt lat="45.990823580168176" lon="8.381367656470822"><ele>209.00000000000003</ele><time>2026-04-04T15:47:56Z</time></trkpt><trkpt lat="45.99084283676475" lon="8.381242346211838"><ele>209.0</ele><time>2026-04-04T15:47:57Z</time></trkpt><trkpt lat="45.99085590592748" lon="8.381089382534094"><ele>209.25</ele><time>2026-04-04T15:47:58Z</time></trkpt><trkpt lat="45.99087176268718" lon="8.380916287573601"><ele>209.5</ele><time>2026-04-04T15:47:59Z</time></trkpt><trkpt lat="45.99088997944862" lon="8.380741378054406"><ele>209.75</ele><time>2026-04-04T15:48:00Z</time></trkpt><trkpt lat="45.99092214646686" lon="8.380587727045217"><ele>210.0</ele><time>2026-04-04T15:48:01Z</time></trkpt><trkpt lat="45.99094174243307" lon="8.38043490239948"><ele>210.0</ele><time>2026-04-04T15:48:02Z</time></trkpt><trkpt lat="45.99095418936909" lon="8.380298366019161"><ele>210.0</ele><time>2026-04-04T15:48:03Z</time></trkpt><trkpt lat="45.99097107557835" lon="8.380149551396764"><ele>210.0</ele><time>2026-04-04T15:48:04Z</time></trkpt><trkpt lat="45.99099475530659" lon="8.37997489965877"><ele>210.0</ele><time>2026-04-04T15:48:05Z</time></trkpt><trkpt lat="45.99101784430411" lon="8.37981007251318"><ele>210.0</ele><time>2026-04-04T15:48:06Z</time></trkpt><trkpt lat="45.991048418163196" lon="8.37965896343812"><ele>210.0</ele><time>2026-04-04T15:48:07Z</time></trkpt><trkpt lat="45.99106203641137" lon="8.379511286140717"><ele>210.0</ele><time>2026-04-04T15:48:08Z</time></trkpt><trkpt lat="45.99107504578439" lon="8.379344363510597"><ele>210.0</ele><time>2026-04-04T15:48:09Z</time></trkpt><trkpt lat="45.99108876566839" lon="8.379167753297864"><ele>210.0</ele><time>2026-04-04T15:48:10Z</time></trkpt><trkpt lat="45.99109422942977" lon="8.379009256293333"><ele>210.0</ele><time>2026-04-04T15:48:11Z</time></trkpt><trkpt lat="45.991095346130564" lon="8.37888649489907"><ele>210.0</ele><time>2026-04-04T15:48:12Z</time></trkpt><trkpt lat="45.9911160142493" lon="8.378763291627426"><ele>210.0</ele><time>2026-04-04T15:48:13Z</time></trkpt><trkpt lat="45.991125632369" lon="8.378658502041981"><ele>210.0</ele><time>2026-04-04T15:48:14Z</time></trkpt><trkpt lat="45.99113885298314" lon="8.378496488391951"><ele>210.0</ele><time>2026-04-04T15:48:16Z</time></trkpt><trkpt lat="45.99115704581068" lon="8.378353554452588"><ele>210.0</ele><time>2026-04-04T15:48:18Z</time></trkpt><trkpt lat="45.99115195690287" lon="8.378259681225707"><ele>210.0</ele><time>2026-04-04T15:49:59Z</time></trkpt><trkpt lat="45.991078323132996" lon="8.378196022634377"><ele>210.0</ele><time>2026-04-04T15:50:13Z</time></trkpt><trkpt lat="45.991003079140185" lon="8.378238401673142"><ele>210.0</ele><time>2026-04-04T15:50:14Z</time></trkpt><trkpt lat="45.990906796394285" lon="8.378281270333277"><ele>210.0</ele><time>2026-04-04T15:50:15Z</time></trkpt><trkpt lat="45.990775910503096" lon="8.378359515467814"><ele>209.66666666666669</ele><time>2026-04-04T15:50:16Z</time></trkpt><trkpt lat="45.990625594831286" lon="8.378449086709587"><ele>209.33333333333334</ele><time>2026-04-04T15:50:17Z</time></trkpt><trkpt lat="45.99047502039483" lon="8.378537170622758"><ele>209.0</ele><time>2026-04-04T15:50:18Z</time></trkpt><trkpt lat="45.990345593538706" lon="8.378612883428504"><ele>209.0</ele><time>2026-04-04T15:50:19Z</time></trkpt><trkpt lat="45.99022644972618" lon="8.378683164788615"><ele>209.0</ele><time>2026-04-04T15:50:20Z</time></trkpt><trkpt lat="45.9901054592739" lon="8.378754865694107"><ele>209.0</ele><time>2026-04-04T15:50:21Z</time></trkpt><trkpt lat="45.98999472499623" lon="8.378820488558416"><ele>209.0</ele><time>2026-04-04T15:50:22Z</time></trkpt><trkpt lat="45.989865905014504" lon="8.378896793001658"><ele>209.5</ele><time>2026-04-04T15:50:23Z</time></trkpt><trkpt lat="45.98973728078698" lon="8.378972978846367"><ele>210.0</ele><time>2026-04-04T15:50:24Z</time></trkpt><trkpt lat="45.98962720744746" lon="8.37904692238817"><ele>210.5</ele><time>2026-04-04T15:50:25Z</time></trkpt><trkpt lat="45.98952147488517" lon="8.379120385399224"><ele>211.0</ele><time>2026-04-04T15:50:26Z</time></trkpt><trkpt lat="45.98940190091508" lon="8.379185881583538"><ele>210.99999999999997</ele><time>2026-04-04T15:50:27Z</time></trkpt><trkpt lat="45.98929323801148" lon="8.379245844932756"><ele>211.0</ele><time>2026-04-04T15:50:28Z</time></trkpt><trkpt lat="45.98919788981585" lon="8.379290534718615"><ele>211.0</ele><time>2026-04-04T15:50:29Z</time></trkpt><trkpt lat="45.98911912440402" lon="8.379333634291172"><ele>211.0</ele><time>2026-04-04T15:50:30Z</time></trkpt><trkpt lat="45.98905272891218" lon="8.379372144432786"><ele>210.99999999999997</ele><time>2026-04-04T15:50:31Z</time></trkpt><trkpt lat="45.988989828466345" lon="8.379410640427103"><ele>211.0</ele><time>2026-04-04T15:50:32Z</time></trkpt><trkpt lat="45.98892498851667" lon="8.379453044709255"><ele>210.66666666666666</ele><time>2026-04-04T15:50:33Z</time></trkpt><trkpt lat="45.98886075112616" lon="8.37949952427993"><ele>210.33333333333331</ele><time>2026-04-04T15:50:34Z</time></trkpt><trkpt lat="45.98880165727493" lon="8.379547642946367"><ele>210.0</ele><time>2026-04-04T15:50:35Z</time></trkpt><trkpt lat="45.988711124446056" lon="8.379621175965427"><ele>209.66666666666669</ele><time>2026-04-04T15:50:37Z</time></trkpt><trkpt lat="45.988626775358156" lon="8.379752904269617"><ele>209.33333333333334</ele><time>2026-04-04T15:50:39Z</time></trkpt><trkpt lat="45.988589561410556" lon="8.379832156914121"><ele>209.0</ele><time>2026-04-04T15:50:40Z</time></trkpt><trkpt lat="45.98849255519021" lon="8.379910952995186"><ele>208.83333333333334</ele><time>2026-04-04T15:50:42Z</time></trkpt><trkpt lat="45.98843992416564" lon="8.379997582927974"><ele>208.66666666666669</ele><time>2026-04-04T15:50:44Z</time></trkpt><trkpt lat="45.988379378594566" lon="8.380104503451635"><ele>208.5</ele><time>2026-04-04T15:50:46Z</time></trkpt><trkpt lat="45.98833298177555" lon="8.380196480558249"><ele>208.33333333333331</ele><time>2026-04-04T15:50:48Z</time></trkpt><trkpt lat="45.98829288447475" lon="8.380284779130168"><ele>208.16666666666666</ele><time>2026-04-04T15:50:51Z</time></trkpt><trkpt lat="45.98824770275364" lon="8.38039461892621"><ele>208.0</ele><time>2026-04-04T15:53:12Z</time></trkpt><trkpt lat="45.98821746285751" lon="8.380483392342924"><ele>208.2</ele><time>2026-04-04T15:53:14Z</time></trkpt><trkpt lat="45.98832763932485" lon="8.38053693010972"><ele>208.4</ele><time>2026-04-04T15:53:21Z</time></trkpt><trkpt lat="45.98829101657492" lon="8.380612828601931"><ele>208.6</ele><time>2026-04-04T15:53:24Z</time></trkpt><trkpt lat="45.98826367829829" lon="8.380751321455204"><ele>208.79999999999998</ele><time>2026-04-04T15:53:26Z</time></trkpt><trkpt lat="45.98823148711844" lon="8.380888242732349"><ele>209.0</ele><time>2026-04-04T15:53:28Z</time></trkpt><trkpt lat="45.98819235916575" lon="8.381018321351755"><ele>209.0</ele><time>2026-04-04T15:53:30Z</time></trkpt><trkpt lat="45.98813566648904" lon="8.381142861789764"><ele>209.0</ele><time>2026-04-04T15:53:32Z</time></trkpt><trkpt lat="45.9879891670612" lon="8.381101867143443"><ele>209.0</ele><time>2026-04-04T15:53:33Z</time></trkpt><trkpt lat="45.98792264268249" lon="8.381232483614221"><ele>209.0</ele><time>2026-04-04T15:53:35Z</time></trkpt><trkpt lat="45.98786229283335" lon="8.381326533946732"><ele>209.0</ele><time>2026-04-04T15:53:37Z</time></trkpt><trkpt lat="45.98777930874915" lon="8.381444824360385"><ele>209.0</ele><time>2026-04-04T15:53:39Z</time></trkpt><trkpt lat="45.98769333706261" lon="8.381552689854876"><ele>209.0</ele><time>2026-04-04T15:53:41Z</time></trkpt><trkpt lat="45.98763891346569" lon="8.381610925904083"><ele>209.0</ele><time>2026-04-04T15:53:42Z</time></trkpt><trkpt lat="45.98753881711009" lon="8.38170586030613"><ele>209.0</ele><time>2026-04-04T15:53:44Z</time></trkpt><trkpt lat="45.98743983143542" lon="8.38177952058498"><ele>208.79999999999998</ele><time>2026-04-04T15:53:46Z</time></trkpt><trkpt lat="45.987344828883195" lon="8.381846917848794"><ele>208.6</ele><time>2026-04-04T15:53:48Z</time></trkpt><trkpt lat="45.987260799802684" lon="8.381902245729567"><ele>208.4</ele><time>2026-04-04T15:53:50Z</time></trkpt><trkpt lat="45.98719488621891" lon="8.381942227482378"><ele>208.2</ele><time>2026-04-04T15:53:52Z</time></trkpt><trkpt lat="45.98717499723569" lon="8.382029987151444"><ele>208.0</ele><time>2026-04-04T15:53:54Z</time></trkpt><trkpt lat="45.98732504668047" lon="8.382543491046787"><ele>207.83333333333331</ele><time>2026-04-04T15:53:55Z</time></trkpt><trkpt lat="45.98734362692915" lon="8.382690085999426"><ele>207.66666666666666</ele><time>2026-04-04T15:53:57Z</time></trkpt><trkpt lat="45.987357888515355" lon="8.382854494182059"><ele>207.5</ele><time>2026-04-04T15:53:59Z</time></trkpt><trkpt lat="45.987373048341254" lon="8.382953508137199"><ele>207.33333333333331</ele><time>2026-04-04T15:54:00Z</time></trkpt><trkpt lat="45.98739270658917" lon="8.383058110790996"><ele>207.16666666666666</ele><time>2026-04-04T15:54:01Z</time></trkpt><trkpt lat="45.987413595043755" lon="8.383153230777864"><ele>207.0</ele><time>2026-04-04T15:54:02Z</time></trkpt><trkpt lat="45.9874394728782" lon="8.383241896954486"><ele>207.0</ele><time>2026-04-04T15:54:03Z</time></trkpt><trkpt lat="45.98746169241663" lon="8.383327633996398"><ele>207.0</ele><time>2026-04-04T15:54:04Z</time></trkpt><trkpt lat="45.987495736116855" lon="8.383499965491067"><ele>207.0</ele><time>2026-04-04T15:54:06Z</time></trkpt><trkpt lat="45.98751695650222" lon="8.383587196176425"><ele>207.0</ele><time>2026-04-04T15:54:07Z</time></trkpt><trkpt lat="45.98753924449331" lon="8.383761478105077"><ele>207.0</ele><time>2026-04-04T15:54:09Z</time></trkpt><trkpt lat="45.98755423579728" lon="8.383865068468223"><ele>207.0</ele><time>2026-04-04T15:54:10Z</time></trkpt><trkpt lat="45.98756852485059" lon="8.383960197246672"><ele>207.16666666666666</ele><time>2026-04-04T15:54:11Z</time></trkpt><trkpt lat="45.9875784221957" lon="8.38405368712733"><ele>207.33333333333331</ele><time>2026-04-04T15:54:12Z</time></trkpt><trkpt lat="45.98758334360923" lon="8.38414493615368"><ele>207.5</ele><time>2026-04-04T15:54:13Z</time></trkpt><trkpt lat="45.98760831915257" lon="8.384320729733266"><ele>207.66666666666666</ele><time>2026-04-04T15:54:15Z</time></trkpt><trkpt lat="45.987622093833714" lon="8.38442861304091"><ele>207.83333333333331</ele><time>2026-04-04T15:54:16Z</time></trkpt><trkpt lat="45.98765085518788" lon="8.384560342641883"><ele>208.0</ele><time>2026-04-04T15:54:17Z</time></trkpt><trkpt lat="45.98768376074918" lon="8.38472118711097"><ele>207.99999999999997</ele><time>2026-04-04T15:54:18Z</time></trkpt><trkpt lat="45.98771660652932" lon="8.38484620212547"><ele>208.0</ele><time>2026-04-04T15:54:19Z</time></trkpt><trkpt lat="45.98774687950617" lon="8.384950152281302"><ele>208.0</ele><time>2026-04-04T15:54:20Z</time></trkpt><trkpt lat="45.987773965943425" lon="8.385060906766228"><ele>208.0</ele><time>2026-04-04T15:54:21Z</time></trkpt><trkpt lat="45.98779868309701" lon="8.385179027463156"><ele>207.99999999999997</ele><time>2026-04-04T15:54:22Z</time></trkpt><trkpt lat="45.98783029960446" lon="8.3852893430733"><ele>208.0</ele><time>2026-04-04T15:54:23Z</time></trkpt><trkpt lat="45.987847861837935" lon="8.385377440611464"><ele>208.0</ele><time>2026-04-04T15:54:24Z</time></trkpt><trkpt lat="45.98786648487738" lon="8.385467217486738"><ele>208.0</ele><time>2026-04-04T15:54:25Z</time></trkpt><trkpt lat="45.98789341472317" lon="8.385576415696729"><ele>208.0</ele><time>2026-04-04T15:54:26Z</time></trkpt><trkpt lat="45.987920054986326" lon="8.385671258940615"><ele>208.0</ele><time>2026-04-04T15:54:27Z</time></trkpt><trkpt lat="45.987972891496206" lon="8.385819544399643"><ele>208.0</ele><time>2026-04-04T15:54:29Z</time></trkpt><trkpt lat="45.98802450457988" lon="8.385976794284291"><ele>208.0</ele><time>2026-04-04T15:54:31Z</time></trkpt><trkpt lat="45.98805456512855" lon="8.386058175230932"><ele>208.0</ele><time>2026-04-04T15:54:32Z</time></trkpt><trkpt lat="45.98808539636176" lon="8.386137803401153"><ele>208.0</ele><time>2026-04-04T15:54:33Z</time></trkpt><trkpt lat="45.988110084030644" lon="8.386225930459553"><ele>208.0</ele><time>2026-04-04T15:54:34Z</time></trkpt><trkpt lat="45.988136422413746" lon="8.386348440003928"><ele>208.0</ele><time>2026-04-04T15:54:36Z</time></trkpt><trkpt lat="45.988161825797135" lon="8.386441332054801"><ele>208.0</ele><time>2026-04-04T15:54:37Z</time></trkpt><trkpt lat="45.98818720613722" lon="8.38653576120741"><ele>208.0</ele><time>2026-04-04T15:54:38Z</time></trkpt><trkpt lat="45.98820811136313" lon="8.386638414005114"><ele>208.0</ele><time>2026-04-04T15:54:39Z</time></trkpt><trkpt lat="45.98824394079061" lon="8.386755600686111"><ele>208.0</ele><time>2026-04-04T15:54:40Z</time></trkpt><trkpt lat="45.98829540890945" lon="8.386872948948431"><ele>208.0</ele><time>2026-04-04T15:54:41Z</time></trkpt><trkpt lat="45.98833402033161" lon="8.386997537771363"><ele>208.0</ele><time>2026-04-04T15:54:42Z</time></trkpt><trkpt lat="45.98836876418744" lon="8.387174726307741"><ele>208.0</ele><time>2026-04-04T15:54:43Z</time></trkpt><trkpt lat="45.988430865666864" lon="8.387350856669329"><ele>208.0</ele><time>2026-04-04T15:54:44Z</time></trkpt><trkpt lat="45.98846453799813" lon="8.387490137432957"><ele>208.0</ele><time>2026-04-04T15:54:45Z</time></trkpt><trkpt lat="45.98850003631548" lon="8.387630127061437"><ele>208.0</ele><time>2026-04-04T15:54:46Z</time></trkpt><trkpt lat="45.988546266548205" lon="8.387770506096098"><ele>208.0</ele><time>2026-04-04T15:54:47Z</time></trkpt><trkpt lat="45.98858648641036" lon="8.387876661038657"><ele>208.0</ele><time>2026-04-04T15:54:48Z</time></trkpt><trkpt lat="45.988617313770355" lon="8.387985652356281"><ele>207.66666666666666</ele><time>2026-04-04T15:54:49Z</time></trkpt><trkpt lat="45.98865706014147" lon="8.388107491970066"><ele>207.33333333333331</ele><time>2026-04-04T15:54:50Z</time></trkpt><trkpt lat="45.98869542593363" lon="8.388218494219222"><ele>207.0</ele><time>2026-04-04T15:54:51Z</time></trkpt><trkpt lat="45.988753843569846" lon="8.388336735829235"><ele>206.66666666666669</ele><time>2026-04-04T15:54:52Z</time></trkpt><trkpt lat="45.98880231969541" lon="8.388423884041677"><ele>206.33333333333334</ele><time>2026-04-04T15:54:53Z</time></trkpt><trkpt lat="45.9888372908277" lon="8.38852240185486"><ele>206.0</ele><time>2026-04-04T15:54:54Z</time></trkpt><trkpt lat="45.9888643675626" lon="8.388636457223496"><ele>206.0</ele><time>2026-04-04T15:54:55Z</time></trkpt><trkpt lat="45.988894206095644" lon="8.388775067591432"><ele>206.0</ele><time>2026-04-04T15:54:57Z</time></trkpt><trkpt lat="45.98895737756942" lon="8.388845434129992"><ele>206.0</ele><time>2026-04-04T15:54:59Z</time></trkpt><trkpt lat="45.989055532848354" lon="8.388850000626457"><ele>206.0</ele><time>2026-04-04T15:55:01Z</time></trkpt><trkpt lat="45.989162547522774" lon="8.388836161670191"><ele>206.0</ele><time>2026-04-04T15:55:03Z</time></trkpt><trkpt lat="45.989225362573066" lon="8.388862953227864"><ele>206.0</ele><time>2026-04-04T15:55:04Z</time></trkpt><trkpt lat="45.989299577277336" lon="8.388865577336977"><ele>206.0</ele><time>2026-04-04T15:55:05Z</time></trkpt><trkpt lat="45.989369053976695" lon="8.388869586865273"><ele>206.0</ele><time>2026-04-04T15:55:06Z</time></trkpt><trkpt lat="45.98948846416923" lon="8.38885175632991"><ele>206.0</ele><time>2026-04-04T15:55:08Z</time></trkpt><trkpt lat="45.98960565699781" lon="8.388793474829376"><ele>206.0</ele><time>2026-04-04T15:55:10Z</time></trkpt><trkpt lat="45.989700137740925" lon="8.388751664988805"><ele>206.60000000000002</ele><time>2026-04-04T15:55:12Z</time></trkpt><trkpt lat="45.98978731324774" lon="8.388647349453073"><ele>207.2</ele><time>2026-04-04T15:55:14Z</time></trkpt><trkpt lat="45.98981445889316" lon="8.388534595326892"><ele>207.8</ele><time>2026-04-04T15:55:14.999Z</time></trkpt><trkpt lat="45.98982130956266" lon="8.388433944689066"><ele>208.39999999999998</ele><time>2026-04-04T15:55:15.999Z</time></trkpt><trkpt lat="45.989786953452466" lon="8.388271751121001"><ele>209.0</ele><time>2026-04-04T15:55:17.999Z</time></trkpt><trkpt lat="45.98978054801733" lon="8.388175018407791"><ele>209.0</ele><time>2026-04-04T15:55:18.999Z</time></trkpt><trkpt lat="45.98977881926093" lon="8.388069952942352"><ele>209.0</ele><time>2026-04-04T15:55:19.999Z</time></trkpt><trkpt lat="45.989796282593716" lon="8.38785042185962"><ele>209.0</ele><time>2026-04-04T15:55:21.999Z</time></trkpt><trkpt lat="45.989787685473544" lon="8.387718895199109"><ele>209.0</ele><time>2026-04-04T15:55:22.999Z</time></trkpt><trkpt lat="45.989768091349134" lon="8.387597512644525"><ele>209.0</ele><time>2026-04-04T15:55:23.999Z</time></trkpt><trkpt lat="45.989763320250475" lon="8.387481935721306"><ele>209.00000000000003</ele><time>2026-04-04T15:55:24.999Z</time></trkpt><trkpt lat="45.98977515550793" lon="8.387325333201611"><ele>209.0</ele><time>2026-04-04T15:55:26.999Z</time></trkpt><trkpt lat="45.98976675468235" lon="8.387229451227569"><ele>209.0</ele><time>2026-04-04T15:55:27.999Z</time></trkpt><trkpt lat="45.98975295427128" lon="8.387133611697926"><ele>209.0</ele><time>2026-04-04T15:55:28.999Z</time></trkpt><trkpt lat="45.98973942108939" lon="8.387016042911721"><ele>209.00000000000003</ele><time>2026-04-04T15:55:29.999Z</time></trkpt><trkpt lat="45.98977551704812" lon="8.386924560677283"><ele>209.0</ele><time>2026-04-04T15:55:30.999Z</time></trkpt><trkpt lat="45.98978915383927" lon="8.386781008672383"><ele>209.0</ele><time>2026-04-04T15:55:31.999Z</time></trkpt><trkpt lat="45.98977157925425" lon="8.386597784775923"><ele>209.0</ele><time>2026-04-04T15:55:32.999Z</time></trkpt><trkpt lat="45.98976055936127" lon="8.386448790606469"><ele>209.0</ele><time>2026-04-04T15:55:33.999Z</time></trkpt><trkpt lat="45.989754204234025" lon="8.386288168427674"><ele>209.0</ele><time>2026-04-04T15:55:35Z</time></trkpt><trkpt lat="45.98976916863187" lon="8.386135269851227"><ele>209.0</ele><time>2026-04-04T15:55:36Z</time></trkpt><trkpt lat="45.98980221653249" lon="8.385995593293282"><ele>209.0</ele><time>2026-04-04T15:55:37Z</time></trkpt><trkpt lat="45.98982607024891" lon="8.385840686617714"><ele>209.0</ele><time>2026-04-04T15:55:38Z</time></trkpt><trkpt lat="45.98984896837058" lon="8.38567711223567"><ele>209.0</ele><time>2026-04-04T15:55:39Z</time></trkpt><trkpt lat="45.98986842293952" lon="8.385511786286395"><ele>209.0</ele><time>2026-04-04T15:55:40Z</time></trkpt><trkpt lat="45.98988326711914" lon="8.385342640546192"><ele>209.0</ele><time>2026-04-04T15:55:41Z</time></trkpt><trkpt lat="45.98990794422578" lon="8.385203044640658"><ele>209.0</ele><time>2026-04-04T15:55:42Z</time></trkpt><trkpt lat="45.989923246027466" lon="8.385067806660022"><ele>209.0</ele><time>2026-04-04T15:55:43Z</time></trkpt><trkpt lat="45.989947644365614" lon="8.384921113759384"><ele>209.0</ele><time>2026-04-04T15:55:44Z</time></trkpt><trkpt lat="45.989977783710074" lon="8.384763707531718"><ele>209.0</ele><time>2026-04-04T15:55:45Z</time></trkpt><trkpt lat="45.9900049065067" lon="8.384607061231254"><ele>209.6</ele><time>2026-04-04T15:55:46Z</time></trkpt><trkpt lat="45.990019825408446" lon="8.384450364763126"><ele>210.2</ele><time>2026-04-04T15:55:47Z</time></trkpt><trkpt lat="45.990032426570096" lon="8.38428981986546"><ele>210.79999999999998</ele><time>2026-04-04T15:55:48Z</time></trkpt><trkpt lat="45.990051261242414" lon="8.384134948879742"><ele>211.39999999999998</ele><time>2026-04-04T15:55:49Z</time></trkpt><trkpt lat="45.990071331094406" lon="8.383987764433243"><ele>212.0</ele><time>2026-04-04T15:55:50Z</time></trkpt><trkpt lat="45.9900890384733" lon="8.383865362703805"><ele>211.8</ele><time>2026-04-04T15:55:51Z</time></trkpt><trkpt lat="45.99009807052732" lon="8.383764152723096"><ele>211.6</ele><time>2026-04-04T15:55:52Z</time></trkpt><trkpt lat="45.990104093270816" lon="8.383656508341863"><ele>211.4</ele><time>2026-04-04T15:55:53Z</time></trkpt><trkpt lat="45.99011048641235" lon="8.383489848282444"><ele>211.20000000000002</ele><time>2026-04-04T15:55:55Z</time></trkpt><trkpt lat="45.99011525077243" lon="8.383367524556526"><ele>211.0</ele><time>2026-04-04T15:55:57Z</time></trkpt><trkpt lat="45.990141522761704" lon="8.383172330665992"><ele>210.99999999999997</ele><time>2026-04-04T15:55:59Z</time></trkpt><trkpt lat="45.99016923869969" lon="8.383043410214738"><ele>211.0</ele><time>2026-04-04T15:56:00Z</time></trkpt><trkpt lat="45.99020088074986" lon="8.38296371609491"><ele>211.0</ele><time>2026-04-04T15:56:01Z</time></trkpt><trkpt lat="45.99027725162901" lon="8.382839648172386"><ele>211.0</ele><time>2026-04-04T15:56:03Z</time></trkpt><trkpt lat="45.990331130640364" lon="8.38277322712488"><ele>210.99999999999997</ele><time>2026-04-04T15:56:04Z</time></trkpt><trkpt lat="45.99037451863014" lon="8.382688731987042"><ele>211.0</ele><time>2026-04-04T15:56:05Z</time></trkpt><trkpt lat="45.99041949036716" lon="8.38261201206945"><ele>210.66666666666666</ele><time>2026-04-04T15:56:06Z</time></trkpt><trkpt lat="45.990459712777465" lon="8.382532895389211"><ele>210.33333333333331</ele><time>2026-04-04T15:56:07Z</time></trkpt><trkpt lat="45.990498411345136" lon="8.38245565580964"><ele>210.0</ele><time>2026-04-04T15:56:08Z</time></trkpt><trkpt lat="45.990530647577316" lon="8.382375025979027"><ele>209.66666666666669</ele><time>2026-04-04T15:56:09Z</time></trkpt><trkpt lat="45.99056407375183" lon="8.382267304677612"><ele>209.33333333333334</ele><time>2026-04-04T15:56:10Z</time></trkpt><trkpt lat="45.99058934192242" lon="8.382118981716156"><ele>209.0</ele><time>2026-04-04T15:56:11Z</time></trkpt><trkpt lat="45.99062356572564" lon="8.382018004578656"><ele>209.0</ele><time>2026-04-04T15:56:12Z</time></trkpt><trkpt lat="45.990650287927664" lon="8.38192573105099"><ele>209.0</ele><time>2026-04-04T15:56:13Z</time></trkpt><trkpt lat="45.9906844077971" lon="8.381760423068904"><ele>209.0</ele><time>2026-04-04T15:56:15Z</time></trkpt><trkpt lat="45.99073332709081" lon="8.381586400796683"><ele>209.0</ele><time>2026-04-04T15:56:17Z</time></trkpt><trkpt lat="45.99077899034948" lon="8.381513650652384"><ele>209.0</ele><time>2026-04-04T15:56:18Z</time></trkpt><trkpt lat="45.990814567440104" lon="8.381423752772804"><ele>209.2</ele><time>2026-04-04T15:56:19Z</time></trkpt><trkpt lat="45.99084587925377" lon="8.381270504180083"><ele>209.39999999999998</ele><time>2026-04-04T15:56:21Z</time></trkpt><trkpt lat="45.990849001442776" lon="8.38117845770918"><ele>209.6</ele><time>2026-04-04T15:56:22Z</time></trkpt><trkpt lat="45.99086518241052" lon="8.381001563600787"><ele>209.8</ele><time>2026-04-04T15:56:24Z</time></trkpt><trkpt lat="45.99087745293448" lon="8.380898737617153"><ele>210.0</ele><time>2026-04-04T15:56:25Z</time></trkpt><trkpt lat="45.99090058907417" lon="8.38077436459784"><ele>210.0</ele><time>2026-04-04T15:56:26Z</time></trkpt><trkpt lat="45.990932394318904" lon="8.380622243713955"><ele>210.0</ele><time>2026-04-04T15:56:27Z</time></trkpt><trkpt lat="45.99095232248865" lon="8.380476799105802"><ele>210.0</ele><time>2026-04-04T15:56:28Z</time></trkpt><trkpt lat="45.9909641821434" lon="8.380329062298493"><ele>210.0</ele><time>2026-04-04T15:56:29Z</time></trkpt><trkpt lat="45.99097075739527" lon="8.3801769211811"><ele>210.0</ele><time>2026-04-04T15:56:30Z</time></trkpt><trkpt lat="45.990996352660424" lon="8.380005662653195"><ele>210.0</ele><time>2026-04-04T15:56:31Z</time></trkpt><trkpt lat="45.9910213850689" lon="8.379818628263221"><ele>210.0</ele><time>2026-04-04T15:56:32Z</time></trkpt><trkpt lat="45.99104348574092" lon="8.379658531540132"><ele>210.0</ele><time>2026-04-04T15:56:33Z</time></trkpt><trkpt lat="45.991066734733145" lon="8.379475315643868"><ele>210.0</ele><time>2026-04-04T15:56:34Z</time></trkpt><trkpt lat="45.99107797825313" lon="8.379271719043706"><ele>210.0</ele><time>2026-04-04T15:56:35Z</time></trkpt><trkpt lat="45.99109286319381" lon="8.379100895272634"><ele>210.0</ele><time>2026-04-04T15:56:36Z</time></trkpt><trkpt lat="45.991104288874205" lon="8.378951045859795"><ele>210.0</ele><time>2026-04-04T15:56:37Z</time></trkpt><trkpt lat="45.9911250295018" lon="8.378805196507452"><ele>210.0</ele><time>2026-04-04T15:56:38Z</time></trkpt><trkpt lat="45.99114108927953" lon="8.37861244771943"><ele>210.0</ele><time>2026-04-04T15:56:40Z</time></trkpt><trkpt lat="45.991147924262435" lon="8.378510461350682"><ele>210.0</ele><time>2026-04-04T15:56:41Z</time></trkpt><trkpt lat="45.991165396555424" lon="8.378372611167622"><ele>210.0</ele><time>2026-04-04T15:56:43Z</time></trkpt><trkpt lat="45.99118551582022" lon="8.378260810356684"><ele>210.0</ele><time>2026-04-04T15:56:46Z</time></trkpt><trkpt lat="45.9911073932722" lon="8.378194172642196"><ele>210.0</ele><time>2026-04-04T15:57:44Z</time></trkpt><trkpt lat="45.99096961886665" lon="8.378244899357593"><ele>210.0</ele><time>2026-04-04T15:57:46Z</time></trkpt><trkpt lat="45.99088060950446" lon="8.378296431133247"><ele>210.0</ele><time>2026-04-04T15:57:47Z</time></trkpt><trkpt lat="45.99076179480691" lon="8.37836801727729"><ele>210.0</ele><time>2026-04-04T15:57:48Z</time></trkpt><trkpt lat="45.99062746497646" lon="8.37844799273284"><ele>210.0</ele><time>2026-04-04T15:57:49Z</time></trkpt><trkpt lat="45.990485976606195" lon="8.378530761343164"><ele>209.75</ele><time>2026-04-04T15:57:50Z</time></trkpt><trkpt lat="45.990323625202535" lon="8.378625734580888"><ele>209.5</ele><time>2026-04-04T15:57:51Z</time></trkpt><trkpt lat="45.99019703061611" lon="8.378700599003858"><ele>209.25</ele><time>2026-04-04T15:57:52Z</time></trkpt><trkpt lat="45.99007476068579" lon="8.378773058124525"><ele>209.0</ele><time>2026-04-04T15:57:53Z</time></trkpt><trkpt lat="45.9899876552737" lon="8.378824678197333"><ele>209.39999999999998</ele><time>2026-04-04T15:57:54Z</time></trkpt><trkpt lat="45.9899007883559" lon="8.378876131131905"><ele>209.8</ele><time>2026-04-04T15:57:55Z</time></trkpt><trkpt lat="45.9898000552572" lon="8.378935796722994"><ele>210.2</ele><time>2026-04-04T15:57:56Z</time></trkpt><trkpt lat="45.989692376506945" lon="8.378999576325914"><ele>210.60000000000002</ele><time>2026-04-04T15:57:57Z</time></trkpt><trkpt lat="45.989579258857674" lon="8.379066577356886"><ele>211.0</ele><time>2026-04-04T15:57:58Z</time></trkpt><trkpt lat="45.98945755124811" lon="8.379138666567556"><ele>211.0</ele><time>2026-04-04T15:57:59Z</time></trkpt><trkpt lat="45.98933734384098" lon="8.379227020797888"><ele>211.0</ele><time>2026-04-04T15:58:00Z</time></trkpt><trkpt lat="45.989207580431085" lon="8.379298219379052"><ele>211.0</ele><time>2026-04-04T15:58:01Z</time></trkpt><trkpt lat="45.989086907176215" lon="8.379374678228933"><ele>211.0</ele><time>2026-04-04T15:58:02Z</time></trkpt><trkpt lat="45.98898556192209" lon="8.379438154269012"><ele>210.66666666666666</ele><time>2026-04-04T15:58:03Z</time></trkpt><trkpt lat="45.9888953536534" lon="8.379483229286688"><ele>210.33333333333331</ele><time>2026-04-04T15:58:04Z</time></trkpt><trkpt lat="45.988826936591245" lon="8.379538606690268"><ele>210.0</ele><time>2026-04-04T15:58:05Z</time></trkpt><trkpt lat="45.98875627382627" lon="8.37959842554656"><ele>209.66666666666669</ele><time>2026-04-04T15:58:06Z</time></trkpt><trkpt lat="45.98868287244465" lon="8.3796721880958"><ele>209.33333333333334</ele><time>2026-04-04T15:58:07Z</time></trkpt><trkpt lat="45.98862563723186" lon="8.37974203671237"><ele>209.0</ele><time>2026-04-04T15:58:08Z</time></trkpt><trkpt lat="45.98854828692714" lon="8.37987639676941"><ele>208.0</ele><time>2026-04-04T15:58:10Z</time></trkpt><trkpt lat="45.98851861609168" lon="8.380004525193911"><ele>208.0</ele><time>2026-04-04T15:58:12Z</time></trkpt><trkpt lat="45.98843764918442" lon="8.379996350715814"><ele>208.0</ele><time>2026-04-04T15:58:14Z</time></trkpt><trkpt lat="45.988393477012295" lon="8.380078806651419"><ele>208.0</ele><time>2026-04-04T15:58:17Z</time></trkpt><trkpt lat="45.98834805462372" lon="8.380163288081125"><ele>208.0</ele><time>2026-04-04T15:58:20Z</time></trkpt></trkseg></trk></gpx>